Templates by BIGtheme NET

2008 10k Results – Womens

B-CC YMCA Turkey Chase 10K
Bethesda, Maryland
November 27, 2008
Timing and Scoring by Montgomery County Road Runners Club

Official Women's Results (Sorted By Net Time)

Place Div/Tot  Num   Name                  Age Hometown         Gun Tim Net Tim Pace
===== ======== ===== ===================== === ================ ======= ======= =====
    1   1/309   2848 Aileen Conlon          26 Montgomery Vill    36:16   36:16  5:51
    2   2/309   3562 Kathryn Neeper         25 Washington DC      36:39   36:39  5:54
    3   3/309   2148 Martha Nelson          27 Chevy Chase MD     37:46   37:46  6:05
    4   1/204   3583 Elizabeth Montgomery   22 Silver Spring MD   40:50   39:36  6:23
    5   1/238   1502 Amanda Tiernan         30 Gaithersburg MD    39:37   39:37  6:23
    6   2/204   3293 Shalane Carlson        20 Charlottesville    39:59   39:59  6:27
    7   1/165   4294 Joyce Gearhart         47 Bethesda MD        40:31   40:31  6:32
    8   3/204   1022 Anya Oleynik           20 Gaithersburg MD    40:45   40:45  6:34
    9   4/309    300 Joanna Lohman          26 Gaithersburg MD    42:07   42:07  6:47
   10   5/309   1663 Deanne Varney          26 Bethesda MD        43:30   42:20  6:49
   11   1/194   3309 Natalie Atabek         17 Bethesda MD        43:27   42:21  6:49
   12   2/165   2990 Rhonda Orndorff        48 Rockville MD       42:21   42:21  6:49
   13   2/238   1239 Kelly Green            32 Washington DC      42:28   42:28  6:50
   14   3/165   4060 Win Persina            48 Washington DC      42:36   42:36  6:52
   15   3/238   1842 Jennifer Kauppi        30 Rockville MD       45:51   42:43  6:53
   16   1/89    2482 Liliana Baron          50 Potomac MD         42:56   42:56  6:55
   17   2/194   1093 Aimee Moores           17 Gaithersburg MD    44:00   42:56  6:55
   18   3/194   3554 Louise Hannallah       18 Potomac MD         44:20   43:01  6:56
   19   4/194    176 Caroline Guiot         14 Bethesda MD        44:22   43:10  6:57
   20   4/204   3458 Madeline Tomka         20 Des Moines IA      43:12   43:12  6:57
   21   5/204    400 Lauren Doll            24 Washington DC      44:52   43:38  7:02
   22   6/309    939 Shannon Oneill         27 Bethesda MD        43:39   43:39  7:02
   23   5/194    308 Alexandria Phillips    14 Bethesda MD        44:57   43:46  7:03
   24   7/309   4475 Katelyn Ewart          25 Bethesda MD        45:25   44:01  7:05
   25   6/194   2714 Clare Sestanovich      17 Washington DC      45:10   44:13  7:07
   26   8/309    660 Daphne Fuentevilla     29 Kensington MD      45:18   44:16  7:08
   27   4/238   3690 Jen Purgason           31 New Market MD      44:19   44:19  7:08
   28   6/204   4072 Kristen Felix          22 Rockville MD       47:34   44:19  7:08
   29   9/309    374 Jennifer Bodine        26 Garrett Park MD    45:35   44:25  7:09
   30   1/215   4406 Jenn Hughes            38 Rockville MD       44:29   44:29  7:10
   31   5/238   2339 Cristina Burbach       34 Washington DC      44:29   44:29  7:10
   32  10/309    393 Emily Harris           26 Bethesda MD        47:39   44:36  7:11
   33  11/309   3374 Athena Miller          28 Bethesda MD        45:51   44:50  7:13
   34   7/194    814 Bianca Rahill-Marier   18 Bethesda MD        46:04   44:54  7:14
   35   4/165   2872 Moana Haddad           46 Chevy Chase MD     44:54   44:54  7:14
   36   6/238   2489 Nicole Deziel          32 Cabin John MD      44:57   44:57  7:14
   37  12/309    821 Victoria Kunze         29 Arlington VA       46:16   44:58  7:15
   38   1/34    1426 Kiki Sweigart          57 McLean VA          46:23   45:05  7:16
   39   7/204    834 Katharine Laco         20 Potomac MD         46:15   45:08  7:16
   40   2/89     747 Amy Subar              52 Potomac MD         46:50   45:38  7:21
   41   2/215   1536 Katherine Tromble      36 Silver Spring MD   46:57   45:51  7:23
   42   5/165   4231 Jeannette Lussi        45 Kensington MD      46:54   45:51  7:23
   43   1/212   1546 Yoko Futatsugi         41 Bethesda MD        46:55   45:52  7:23
   44   3/215    902 Jennifer Schwartz      37 Bethesda MD        47:23   45:55  7:24
   45  13/309    547 Shelley Johnson        29 South Royalton V   46:57   45:56  7:24
   46  14/309   1525 Jackie Jouvenal        26 Potomac MD         47:30   46:07  7:26
   47   8/204   2692 Colleen Callan         22 Silver Spring MD   49:30   46:22  7:28
   48   7/238   2473 Claire Bosire          30 Washington DC      50:30   46:23  7:28
   49   8/194   3661 Anna Bosse             15 Rockville MD       47:29   46:23  7:28
   50   2/212   3466 Lisa Moss              41 Rockville MD       47:54   46:25  7:29
   51   4/215   2488 Cynthia Sanchez        36 Rockville MD       47:33   46:25  7:29
   52   9/204    771 Carolyn Kilkus         24 Rockville MD       47:40   46:26  7:29
   53   8/238    744 Diana Moltrup          34 Rockville MD       54:04   46:26  7:29
   54   9/194   4071 Danielle Newsham       15 Bethesda MD        47:40   46:28  7:29
   55  10/194   2387 Jenna Willett          16 Kensington MD      47:39   46:32  7:30
   56  10/204   2622 Eve Hoffman            22 Washington DC      47:48   46:37  7:30
   57  11/204   2942 Morgan Pleasant        23 Bethesda MD        49:51   46:39  7:31
   58  15/309   4417 Holly Moden            28 Clarksburg MD      48:18   46:39  7:31
   59  11/194   2633 Amy Ferro              16 Rockville MD       47:48   46:47  7:32
   60   5/215    921 Karen Colbert          35 Bethesda MD        46:49   46:49  7:33
   61   3/212    691 Amy Liu                42 Columbia MD        48:10   46:51  7:33
   62   9/238    536 Tenley Ludewig         33 Oakton VA          48:12   46:52  7:33
   63  12/204     47 Leslie Conner          20 Damascus MD        48:11   46:53  7:33
   64  12/194   3059 Maria Moersen          15 Bethesda MD        48:02   46:55  7:33
   65  13/194    702 Kari Putterman         19 Bethesda MD        48:22   46:56  7:34
   66  13/204   1875 Patricia Notario       24 Washington DC      53:28   47:02  7:35
   67  16/309   2369 Adrienne Robinson      25 Washington DC      48:21   47:05  7:35
   68   1/12    1052 Chris Craun            62 Bethesda MD        48:24   47:19  7:37
   69  17/309   4392 Allyson Price          26 Wheaton MD         48:43   47:24  7:38
   70  10/238   3377 Lynn Riewe             31 Washington DC      50:42   47:28  7:39
   71   6/215   2057 Karen Guilds           36 Gaithersburg MD    50:33   47:32  7:39
   72  18/309   2657 Rachel Greszler        26 Bethesda MD        50:46   47:37  7:40
   73  14/194    712 Kathlyn Arm            15 Closter NJ         48:48   47:38  7:40
   74   7/215   2318 Lisa Hoffman           35 Rockville MD       51:17   47:39  7:40
   75  15/194   4086 Cottie Hedden          16 Washington DC      50:44   47:43  7:41
   76   8/215   2037 Nyla Goode             37 San Francisco CA   49:07   47:46  7:42
   77  16/194   2203 Morgane Gay            18 Bethesda MD        51:08   47:48  7:42
   78  17/194   3017 Leslie Morrison        19 Bethesda MD        51:07   47:49  7:42
   79  11/238   2747 Melissa Sellevaag      34 Washington DC      50:55   47:51  7:42
   80   6/165   3073 Natalie Jenkins        49 Gaithersburg MD    49:02   47:54  7:43
   81   4/212   3204 Eva Dombi              44 Rockville MD       51:20   47:55  7:43
   82   9/215    737 Elizabeth Williams     38 Chevy Chase MD     49:14   47:56  7:43
   83  14/204   1467 Lindsay Tingley        24 Rockville MD       49:18   47:57  7:43
   84  12/238   1167 Caroline Chamoun       31 Derwood MD         49:22   47:59  7:44
   85  10/215    922 Jill Karpa             37 Washington DC      51:27   48:02  7:44
   86  11/215    317 Sarah Sung             35 San Francisco CA   51:49   48:08  7:45
   87  12/215   1416 Margaret Mitchell      37 Chevy Chase MD     52:12   48:08  7:45
   88   7/165    794 Nancy Shapiro          45 Potomac MD         49:31   48:09  7:45
   89  13/215   3207 Lisa Barclay           36 Chevy Chase MD     51:37   48:10  7:46
   90  19/309    875 Lauren Maxwell         26 Bethesda MD        49:17   48:13  7:46
   91  14/215   1707 Bonnie Hooker          38 Bethesda MD        49:40   48:17  7:47
   92   5/212    601 Diana Echenique        41 Bethesda MD        49:20   48:18  7:47
   93   8/165   4069 Eileen Haase           47 Rockville MD       49:32   48:21  7:47
   94           7614 Katie Sanson                                 54:25   48:22  7:47
   95  20/309   2647 Elena Edelman          26 Bethesda MD        49:53   48:25  7:48
   96   6/212   2574 Bridget Ryder          40 Gaithersburg MD    52:23   48:26  7:48
   97  13/238    212 Susan Marsiglia Gray   31 Silver Spring MD   49:56   48:27  7:48
   98  15/204   1252 Carolyn Murphy         23 Rockville MD       52:24   48:29  7:49
   99  21/309    486 Noura Salman           26 Washington DC      48:30   48:30  7:49
  100   7/212    855 Karen Harr             43 Canonsburg PA      51:58   48:33  7:49
  101  14/238   2106 Shannan Higgins        34 Washington DC      56:14   48:34  7:49
  102  15/215    640 Erica Dominitz         38 Bethesda MD        49:37   48:34  7:49
  103  16/204    997 Madeleine Watkins      21 Bethesda MD        50:01   48:39  7:50
  104  22/309   2602 Annie Hannan           26 Derwood MD         51:55   48:41  7:50
  105  18/194   2754 Cara Bennet            15 Bethesda MD        49:59   48:47  7:52
  106   8/212   1636 Susan Vinal            41 Kensington MD      52:11   48:50  7:52
  107  19/194   1864 Gabrielle McKenzie     18 Bethesda MD        52:08   48:50  7:52
  108  20/194   1403 Stephanie Jones        14 Potomac MD         57:16   48:51  7:52
  109  16/215   1477 Kathy Navid            39 Ny NY              49:57   48:55  7:53
  110   9/165    244 Robin Lerner           45 Bethesda MD        50:11   48:58  7:53
  111   9/212   1990 Jane Magruder          43 Dickerson MD       50:27   49:02  7:54
  112  10/212   4485 Nicole Diess           42 Bethesda MD        52:07   49:02  7:54
  113  11/212   1740 Mary Bowman            43 Silver Spring MD   55:30   49:04  7:54
  114  17/204    879 Erica Wright           21 Cabin John MD      50:29   49:05  7:54
  115  23/309   1049 Alexandra Melby        28 Washington DC      50:11   49:07  7:55
  116  17/215   4431 Sheilah Eiser          39 Bethesda MD        50:26   49:08  7:55
  117  10/165   4174 Kathryn O'Brien        45 Washington DC      50:34   49:09  7:55
  118  18/215   1308 Holly Ryan             38 Brookeville MD     55:57   49:10  7:55
  119  21/194   1384 Megan Fitzgerald       19 Bethesda MD        52:50   49:13  7:56
  120  24/309    375 Hilary Swab            26 Bethesda MD        56:22   49:14  7:56
  121  25/309   4419 Sophie Pinkard         26 Bethesda MD        52:57   49:18  7:56
  122  19/215   2462 Pamela Rodriguez Luzi  36 Watertown MA       50:30   49:19  7:57
  123  12/212   3266 Lainie Gilbert         43 North Caldwell N   53:23   49:19  7:57
  124  20/215   2414 Teah Devan             35 Gaithersburg MD    50:41   49:19  7:57
  125  15/238   3302 Mona Sehgal            34 Bethesda MD        50:43   49:20  7:57
  126  11/165   1127 Teresa Lent            46 Arlington VA       51:02   49:20  7:57
  127  22/194    136 Sarah Nutman           19 Chevy Chase MD     52:22   49:21  7:57
  128  16/238   1647 Nicole Fry             33 Germantown MD      50:57   49:23  7:57
  129  13/212    947 Lara Hogston           40 Silver Spring MD   52:50   49:23  7:57
  130  17/238    582 Linsey Goch            30 Bethesda MD        52:51   49:23  7:57
  131  14/212   2241 Jody Rice              40 Middletown MD      52:48   49:24  7:57
  132  18/238   2332 Ava Segal              30 Seattle WA         52:28   49:27  7:58
  133  23/194   1860 Darcy Hayes            19 Damascus MD        50:54   49:29  7:58
  134  26/309   2395 Sherry Shenouda        25 Bethesda MD        51:08   49:33  7:59
  135  24/194   2101 Andi Sunshine          16 Bethesda MD        52:57   49:37  8:00
  136  19/238   1567 Grettel Collins        33 Gaithersburg MD    55:58   49:38  8:00
  137  20/238   2583 Lisa Vojta             34 Rockville MD       53:06   49:38  8:00
  138  12/165   2744 Margarita Prieto       46 Washington DC      52:50   49:38  8:00
  139  18/204   2876 Sara Jimenez           24 Bethesda MD        55:43   49:38  8:00
  140  25/194   4268 Darcy O'Connor         15 Bethesda MD        53:03   49:42  8:00
  141  26/194   4304 Kate Leuba             16 Chevy Chase MD     53:03   49:42  8:00
  142  27/309   1474 Laura Desobry          25 Bethesda MD        51:11   49:47  8:01
  143  21/215   4373 Andrea Varea           38 Bethesda MD        51:28   49:49  8:01
  144  27/194   2995 Ariana Vitarelli       16 Rockville MD       53:46   49:50  8:02
  145  28/194   3028 Jamie Thompson         14 McLean VA          53:45   49:51  8:02
  146  29/194   2850 Christina Bax          16 Bethesda MD        52:54   49:52  8:02
  147  30/194   3441 Camille Bouvet         15 Bethesda MD        50:59   49:52  8:02
  148   2/34    2327 Luann Sinclair         55 Potomac MD         51:18   49:55  8:02
  149  21/238    745 Agnese Arnold          31 Kensington MD      51:18   49:56  8:03
  150  31/194    459 Lndsay Derby           17 Damascus MD        51:16   49:58  8:03
  151  13/165   1848 Anne R Carey           49 Washington DC      51:09   49:58  8:03
  152  28/309   3647 Kathryn Roe            25 Bethesda MD        51:29   50:02  8:04
  153  22/215   3174 Heather Gerth          35 Bethesda MD        53:29   50:03  8:04
  154  19/204   2348 Alice Magill           21 Potomac MD         51:42   50:06  8:04
  155  20/204   1675 Sarah Koenig           22 Rockville MD       53:16   50:08  8:04
  156  29/309    156 Amy Ostrow             29 Gaithersburg MD    53:49   50:08  8:04
  157  32/194   4423 Ellie Dugan            18 Silver Spring MD   58:09   50:09  8:05
  158  22/238   2314 Gayle Zywicke          32 Kensington MD      51:23   50:10  8:05
  159  14/165   4501 Allison Degravelles    46 Bethesda MD        54:23   50:11  8:05
  160  15/165   2939 Kristy Kim             45 Herndon VA         51:14   50:13  8:05
  161  23/238   1916 Madeline Dolente       32 Baltimore MD       53:21   50:15  8:06
  162  33/194   4376 Megan McKoy            17 Mitchellville MD   53:17   50:16  8:06
  163  24/238   1980 Birgitte Jensen        33 Brooklyn NY        53:44   50:17  8:06
  164  25/238   3273 Rachel Houp            34 Gaithersburg MD    53:53   50:17  8:06
  165  26/238    869 Jennifer Hess          33 Kensington MD      51:58   50:17  8:06
  166  30/309    186 Elis Moss              27 Vienna VA          53:30   50:20  8:06
  167  15/212   1598 Susan Dorsey           43 Evergreen CO       54:19   50:21  8:07
  168  31/309   2614 Adam Musser            25 Bethesda MD        54:01   50:22  8:07
  169  34/194   2927 Johna Applestein       16 Rockville MD       51:29   50:23  8:07
  170  27/238   4270 Megan Wildstein        33 Silver Spring MD   51:57   50:27  8:07
  171  32/309    390 Melissa Case           26 Arlington VA       52:07   50:27  8:08
  172  35/194   1755 Peter Leonard          15 Chevy Chase MD     53:41   50:28  8:08
  173  16/212   1832 Sarah Noonberg         41 Berkeley CA        53:52   50:30  8:08
  174  36/194   3271 Madeline Casey         17 Potomac MD         53:33   50:30  8:08
  175  33/309   2713 Jessica Weiss          25 Rockville MD       53:31   50:30  8:08
  176   3/89    1042 Carol English          54 Germantown MD      51:39   50:31  8:08
  177  34/309    791 Julie Turco            29 New York NY        52:11   50:34  8:09
  178  23/215    112 Shawn Feddeman         35 Boston MA          52:13   50:37  8:09
  179  35/309   2300 Teresa Denchfield      27 Bethesda MD        53:55   50:40  8:10
  180  28/238   1139 Sarah Sullivan         32 Washington DC      54:47   50:43  8:10
  181  29/238   1652 Laura Gittleson        32 Rockville MD       57:45   50:43  8:10
  182  37/194   1854 Theresa Regan          15 Bethesda MD        53:57   50:43  8:10
  183  38/194   3499 Hannah Wolfe           16 Washington DC      53:46   50:44  8:10
  184  17/212   2146 Valerie Baruch         42 Bethesda MD        52:37   50:46  8:11
  185  21/204    918 Emily Lerman           24 San Francisco CA   52:24   50:46  8:11
  186   4/89     621 Nancy Alexander        51 Kensington MD      53:57   50:47  8:11
  187  22/204   2941 Kiki Manners           20 Bethesda MD        54:00   50:47  8:11
  188  36/309   2164 Elizabeth Bollwerk     25 Bethesda MD        57:50   50:48  8:11
  189   2/12    2648 Nancy Avitabile        60 Bethesda MD        52:17   50:49  8:11
  190  30/238    305 Maria Perez            32 Silver Spring MD   54:14   50:49  8:11
  191  23/204   4293 Maggie McGuire         23 Chevy Chase MD     52:14   50:51  8:11
  192  37/309   2613 Kathleen Gannon        25 Bethesda MD        54:31   50:52  8:12
  193  31/238   1520 Sarah Erskine          30 Kensington MD      54:16   50:55  8:12
  194  24/215   3649 Maureen Kramer         35 Bethesda MD        54:26   50:56  8:12
  195  32/238   2279 Cheryl Miranian        30 Germantown MD      54:28   50:57  8:12
  196  39/194   2503 Alana Moore            17 Rockville MD       52:15   50:58  8:13
  197  40/194   1369 Eva Rodezno            17 Rockville MD       52:15   50:58  8:13
  198  24/204   1881 Genevieve Citrin       21 Chevy Chase MD     54:33   51:01  8:13
  199  25/204   1882 Rachael Sushner        21 Chevy Chase MD     54:33   51:01  8:13
  200  18/212   3345 Andrea Marques         40 Bethesda MD        58:22   51:02  8:13
  201  38/309   1322 Erin Lyons             25 New York NY        54:28   51:03  8:13
  202  39/309   2341 Pamela Montano         27 Silver Spring MD   57:56   51:04  8:14
  203  40/309    654 Allison Lyons          28 Chicago IL         54:30   51:05  8:14
  204  41/194   3042 Diana Pressel          15 Rockville MD       54:12   51:10  8:14
  205   5/89     312 Carolyn Breen          51 Bethesda MD        52:38   51:11  8:15
  206  41/309   3203 Lissa Pressfield       26 Potomac MD         54:13   51:12  8:15
  207  42/309    853 Amelia Acuna           26 Gaithersburg MD    52:23   51:14  8:15
  208  16/165    756 Marcia Harrington      49 Colesville MD      52:56   51:14  8:15
  209  25/215    767 Erica Lewis            35 Kensington MD      52:31   51:17  8:16
  210  19/212   2313 Cathy Lawler           41 Silver Spring MD   54:34   51:19  8:16
  211  42/194    701 Sara Putterman         17 Bethesda MD        52:48   51:22  8:16
  212  26/215    530 Beth Rosenstein        35 Bethesda MD        54:35   51:24  8:17
  213  27/215    200 Melanie Dawson         37 Bristow VA         55:13   51:25  8:17
  214  20/212    852 Gina Acuna             44 Gaithersburg MD    52:35   51:26  8:17
  215  43/309   1054 Libby Stancik          29 Washington DC      59:15   51:29  8:17
  216  28/215   2429 Susan Massarini        39 Poolesville MD     55:27   51:33  8:18
  217  44/309   4513 Natalie Stein          27 New York NY        55:51   51:33  8:18
  218  21/212   4202 Sheila Wellington      42 Silver Spring MD   55:22   51:34  8:18
  219  26/204   2549 Chrsitina McNemar      20 New Windsor MD     54:40   51:34  8:18
  220  33/238   1358 Heather McNemar        34 Falls Church VA    54:41   51:35  8:18
  221  22/212   1074 Andrea Sheys           43 Bethesda MD        52:51   51:36  8:19
  222  23/212   4436 Anne Marie Kirlin      40 Bethesda MD        54:42   51:37  8:19
  223  45/309   2419 Julie Minton           28 Bethesda MD        57:45   51:38  8:19
  224  29/215    609 Robyn Quattrone        35 McLean VA          53:20   51:42  8:20
  225  24/212   2746 Lisa Hunter            42 Rockville MD       54:50   51:43  8:20
  226  25/212   1289 Lynn Ratnavale         41 Bethesda MD        55:30   51:44  8:20
  227  30/215   1531 Stana Kimball          36 Bethesda MD        55:15   51:44  8:20
  228  46/309   2743 Kristen Grenon         26 Baltimore MD       58:08   51:45  8:20
  229  27/204   1548 Becky Weinstein        23 Bethesda MD        57:45   51:45  8:20
  230  31/215    304 Julie Lefkowitz        39 Silver Spring MD   53:16   51:47  8:20
  231  26/212    454 Shannon Cirovski       40 Highland MD        55:21   51:47  8:20
  232   6/89    2226 Sherry Ansher          51 Bethesda MD        53:08   51:48  8:21
  233  47/309   3121 Holly Wittsack         26 Gaithersburg MD    54:54   51:48  8:21
  234  32/215    180 Terri Angstreich       37 Bethesda MD        59:16   51:51  8:21
  235  34/238   2940 Laura Kwako            32 Bethesda MD        55:07   51:52  8:21
  236  33/215   4075 Claudia Western        36 Bethesda MD        55:13   51:52  8:21
  237  35/238   1097 Kathleen Pajcic        31 Jacksonville FL  1:00:33   51:54  8:21
  238  27/212   4518 Suzanne Whitty         44 New Haven CT       55:07   51:54  8:22
  239            845 Noelle Tom-Wigfield       Silver Spring MD   58:32   51:56  8:22
  240  48/309     86 Rachel Hines           25 Chapel Hill NC     55:10   51:57  8:22
  241   7/89    1640 Linda Burrell          50 Derwood MD         55:47   51:58  8:22
  242  28/212   1724 Denise Rivoal          44 Silver Spring MD   53:23   51:58  8:22
  243  36/238   2006 Erica Ferrell          30 Thurmont MD        55:09   51:59  8:22
  244  43/194    522 Dina Jackson           17 Potomac MD         53:09   51:59  8:22
  245   8/89    2889 Jean Silverman         51 Kensington MD      55:10   52:00  8:22
  246  28/204   2509 Sarah Halperin         22 Bethesda MD        53:14   52:00  8:22
  247  49/309   4082 Gina Steinhauser       25 Chevy Chase MD     58:08   52:00  8:23
  248  44/194   4243 Rose Kwak              17 Bethesda MD        58:28   52:00  8:23
  249  37/238   3689 Maureen Nagle          34 Washington DC      59:39   52:01  8:23
  250  45/194   2551 Erin Fisher            16 Bethesda MD        53:10   52:03  8:23
  251  50/309    594 Elysa Barron           28 Potomac MD         58:36   52:04  8:23
  252  29/204   2788 Jessica Holtrop        24 Missoula MT        53:38   52:05  8:23
  253  51/309   2399 Kimberly Cooper        27 Philadelphia PA    55:06   52:05  8:23
  254  29/212   1667 Amanda Bryans          43 Silver Spring MD   53:24   52:07  8:24
  255  52/309    656 Heather McClelland     28 Deep River CT      55:55   52:07  8:24
  256  17/165   2909 Melissa Andersen       45 Kensington MD      56:20   52:08  8:24
  257  30/204    358 Sara Gray              20 Bethesda MD        58:48   52:08  8:24
  258  38/238   1382 Julie Kujawa           32 Somerville MA      55:13   52:09  8:24
  259  46/194   3089 Kathleen Tatem         18 Kensington MD      58:49   52:10  8:24
  260  31/204    429 Alison Urbanek         24 Silver Spring MD   55:28   52:12  8:24
  261  47/194   3333 Charlotte Kirwan       14 Bethesda MD        53:16   52:15  8:25
  262  32/204   1754 Anna Leonard           20 Chevy Chase MD     55:52   52:17  8:25
  263  34/215   1019 Amy Dutko              38 Rockville MD       53:46   52:18  8:25
  264  30/212    402 Janine Gregory         44 Bethesda MD        55:56   52:21  8:26
  265  18/165   2155 Abby Bronson           47 Bethesda MD        55:28   52:23  8:26
  266  35/215   3460 Jen Tokar              39 Alexandria VA      55:29   52:23  8:26
  267  31/212    516 Lisa Blair             42 McLean VA          56:36   52:24  8:26
  268  39/238   4258 Jamie Reynolds         32 Chevy Chase MD     55:29   52:24  8:26
  269  32/212   3248 Dana L. Carl           44 Bowie MD           55:42   52:26  8:27
  270  19/165   4342 Barbara Gill           45 Bethesda MD        56:37   52:30  8:27
  271  53/309    585 Mara Higgins           28 Boston MA          56:49   52:31  8:28
  272  36/215   1823 Tracy Byrum            39 Potomac MD         56:30   52:33  8:28
  273  37/215    597 Marta Perez Drake      38 Arlington VA       55:58   52:33  8:28
  274  54/309   1207 Michelle Sachs         26 Rockville MD       56:42   52:34  8:28
  275  48/194    858 Sarah Olderman         17 Bethesda MD        56:58   52:36  8:28
  276  33/212   3660 Nina Zegger            44 Washington DC      55:41   52:36  8:28
  277  49/194   2402 Courtney Allen         17 Bethesda MD        58:54   52:38  8:29
  278  20/165   2498 Tracy Koretsky         48 Bethesda MD      1:01:07   52:39  8:29
  279  55/309    330 Michelle Moore         25 Washington DC      56:11   52:39  8:29
  280  56/309   1282 Jennifer Willson       28 Washington DC    1:00:08   52:40  8:29
  281  50/194   1333 Rachel Zacchea         15 Geneva FL          54:20   52:41  8:29
  282  33/204   3399 Kimberly Maxfield      24 Arlington VA       56:08   52:41  8:29
  283  21/165   2511 Susan Hughes           47 Bethesday MD       56:25   52:43  8:29
  284  34/212   3256 Yvonne Murray          44 Bethesda MD        56:44   52:43  8:29
  285  38/215   4427 Pamela Murray          38 Bethesda MD        55:49   52:44  8:30
  286  51/194   2958 Yael Roberts           15 Potomac MD         58:48   52:45  8:30
  287  34/204   1713 Kimberly Phillips      22 Bethesda MD        55:49   52:47  8:30
  288  40/238    605 Kathleen Brooks        31 Potomac MD         59:23   52:49  8:30
  289  57/309   2142 Linda Hang             25 Silver Spring MD   56:30   52:52  8:31
  290  52/194    532 Laura Walsh            18 Bethesda MD        59:15   52:53  8:31
  291  22/165   3180 Michelle Powell        46 Rockville MD     1:01:44   52:55  8:31
  292  53/194   1386 Kathryn Fitzgerald     18 Bethesda MD        56:32   52:56  8:32
  293  54/194   4386 Rebecca Horner         12 Arlington VA     1:00:10   52:58  8:32
  294  39/215   2892 Alison Milofsky        38 Chevy Chase MD     56:36   52:59  8:32
  295  58/309   3456 Laura Petrysaite       29 Kensington MD      57:15   53:01  8:32
  296  41/238   1293 Cristina Spooner       30 Washington DC      56:34   53:02  8:32
  297  35/204   1919 Miriam Mintz           24 New York NY        56:46   53:02  8:33
  298  35/212   1656 Deborah King           41 Darnestown MD      56:22   53:04  8:33
  299  42/238   1590 Angela Blake-Haskins   33 Columbia MA        54:47   53:06  8:33
  300  43/238    451 Elizabeth Rybicki      34 Takoma Park MD     56:48   53:06  8:33
  301  40/215   2527 Micki Hultquist        38 Gaithersburg MD    57:07   53:11  8:34
  302  59/309   3322 Kerrie Martin          29 Washington DC      57:12   53:11  8:34
  303  23/165   1264 Kim Westervelt         46 Clarksburg MD    1:01:40   53:12  8:34
  304  60/309   3325 Courtney Fischer       26 Washington DC      57:13   53:12  8:34
  305  36/212   2615 Felice Goodwin         43 Washington DC      59:14   53:12  8:34
  306  24/165   1125 Karen Dalheim          46 Washington DC    1:00:50   53:12  8:34
  307  44/238   1446 Alison Bartleman       34 Bethesda MD        57:07   53:12  8:34
  308  55/194   2124 Tiffany Lin            17 Rockville MD       59:29   53:13  8:34
  309  37/212   1444 Jessica McIntyre       42 Darnestown MD      59:33   53:13  8:34
  310  38/212   2863 Linda Jackson          43 McLean VA          56:45   53:15  8:35
  311  36/204    993 Katherine Jarosz       23 Vienna VA          59:32   53:16  8:35
  312  61/309   2274 Jessica Meyers         27 Dallas TX          57:11   53:16  8:35
  313  45/238   2085 Amy Langevin           33 Silver Spring MD   54:58   53:16  8:35
  314  56/194   3574 Sarah Backenstoe       14 Maryland MD        56:27   53:17  8:35
  315  46/238   3084 Kathleen Mitchell      33 Kensington MD      54:59   53:17  8:35
  316  39/212   2179 Malin Haugwitz         41 Bethesda MD        59:57   53:18  8:35
  317  62/309   2176 Courtney Larned        29 Herndon VA       1:00:46   53:22  8:36
  318  63/309    662 Ann Cabiness           26 Bethesda MD        56:28   53:24  8:36
  319  47/238   3198 Bridget Riddle         31 Rockville MD       55:04   53:25  8:36
  320  40/212   1283 Melissa Lesmes         41 Chevy Chase MD   1:00:53   53:25  8:36
  321  64/309   3194 Theresa Riddle         29 Rockville MD       55:04   53:25  8:36
  322  65/309   3056 Victoria Henry         25 Bethesda MD        57:06   53:28  8:37
  323  37/204   2641 Mary Megorden          20 Gaithersburg MD    59:30   53:28  8:37
  324  48/238   3303 Sona Sehgal            34 Bethesda MD        54:52   53:30  8:37
  325  25/165   2637 Karen Bedell           49 Bethesda MD        54:48   53:30  8:37
  326  66/309   2541 Anika Binnendijk       28 Washington DC      57:47   53:30  8:37
  327  49/238   1338 Laura Olivieri         31 Washington DC      56:54   53:30  8:37
  328  67/309   2748 Meghan Furgeson        26 Tyler TX           57:45   53:33  8:37
  329  38/204   2640 Sarah Megorden         24 Gaithersburg MD    59:36   53:34  8:38
  330  41/215     10 Heidi Vu               36 Gaithersburg MD    57:06   53:35  8:38
  331  68/309   2175 Emily Coates           25 Norwood NY       1:01:05   53:39  8:38
  332  41/212   2223 Kathleen Ogilvie       40 Potomac MD         59:47   53:41  8:39
  333  57/194   1982 Lauren Janniello       19 Laytonsville MD    55:08   53:44  8:39
  334  26/165   2735 Sallie Boehle          46 Ridgefield CT    1:00:44   53:45  8:39
  335  39/204   3687 Radhika Prabhakar      24 Bethesda MD        58:02   53:48  8:40
  336  42/212    728 Nancy Manning          44 Bethesda MD      1:01:45   53:48  8:40
  337  69/309   2582 Emily Krecke           25 Bethesda MD      1:00:57   53:48  8:40
  338  40/204   4312 Aisele Rojas           23 Rockville MD       58:01   53:49  8:40
  339  50/238   3488 Shannon Davis          32 Falls Church VA    59:55   53:50  8:40
  340  70/309   4508 Joanna Zuercher        27 Arlington VA       55:14   53:51  8:40
  341  58/194   4343 Tayler Esherick        14 Bethesda MD        57:41   53:53  8:41
  342  41/204   2328 Shawn Sendar           21 Potomac MD         55:15   53:53  8:41
  343  59/194   3407 Jane Williams          19 Bethesda MD        57:14   53:55  8:41
  344  42/204   3053 Jenny Jurgovan         21 Chevy Chase MD   1:01:35   53:56  8:41
  345  71/309    234 Erica Hamilton         28 New York NY      1:01:05   53:56  8:41
  346  27/165   3491 Sarah Rodowsky         47 Potomac MD         57:18   53:57  8:41
  347   3/34    1858 Behnaz Fardshisheh     55 Potomac MD       1:01:19   53:57  8:41
  348  72/309   3406 Emily Williams         25 Bethesda MD        57:17   53:58  8:41
  349  43/204    759 Jamie Zhang            20 Rockville MD       55:31   53:59  8:42
  350  42/215   1228 Marjorie Henriquez     35 Arlington VA       57:21   54:00  8:42
  351  73/309   2946 Mary Gualtieri         28 Washington DC      55:20   54:02  8:42
  352  60/194    433 Marisel Wilbur         14 Washington DC    1:00:56   54:03  8:42
  353  43/215   4112 Seana Golder           39 Louisville KY    1:00:46   54:03  8:42
  354  28/165   3152 Susan Campbell         46 Rockville MD       58:09   54:05  8:43
  355  74/309    222 Corinn Wendel          27 Gaithersburg MD  1:00:11   54:05  8:43
  356   9/89    1730 Susan Sprecher         50 Gaitherburg MD   1:00:26   54:06  8:43
  357  29/165   1200 Donna Barnett          46 Potomac MD       1:00:30   54:06  8:43
  358  61/194   4120 Brittany Stinger       15 McLean VA        1:00:41   54:06  8:43
  359  30/165   2620 Heidi Sheppard         49 Kensington MD      57:56   54:06  8:43
  360  44/215   1917 Rebecca McGuire        35 Bethesda MD      1:01:23   54:07  8:43
  361  31/165   4275 Julia Dahlberg         47 Chevy Chase MD     55:17   54:07  8:43
  362  62/194    313 Sarah Breen            14 Bethesda MD      1:00:07   54:08  8:43
  363  75/309   3474 Rachel Hernandez       28 Kensington MD    1:00:30   54:08  8:43
  364  44/204   3189 Nikki Baruch           20 North Potomac MD   57:43   54:09  8:43
  365  43/212   1529 Caroline Zimmerman     44 Rockville MD       57:13   54:10  8:43
  366  44/212   1175 Marlow Blankenship     42 Boyds MD           57:53   54:10  8:43
  367  32/165   1750 Jody Thayer            48 Potomac MD         57:14   54:11  8:44
  368  63/194   2159 Anne Peterson          19 Bethesda MD        57:22   54:11  8:44
  369  45/215    239 Meredith Simmons       38 Rehoboth Beach D 1:02:51   54:11  8:44
  370  76/309   1214 Monica Neukomm         29 Hyattsville MD     58:15   54:13  8:44
  371  77/309   3432 Emily Hathaway         25 Hopewell PA        58:10   54:14  8:44
  372   4/34    2095 Susan Pappas           59 Bethesda MD      1:00:17   54:15  8:44
  373  51/238    243 Sarah Michnick         31 Potomac MD         58:29   54:16  8:44
  374  78/309   1738 Jessica Lewis          27 Vienna VA        1:00:29   54:16  8:44
  375  46/215   3686 Cheryl Anderson        37 Silver Spring MD   57:38   54:17  8:45
  376  45/212   2060 Julie Corcoran         41 Bethesda MD        58:03   54:17  8:45
  377  47/215   1968 Christina S Cusack     36 Washington DC    1:01:09   54:17  8:45
  378  10/89    2751 Christine Pendzich     52 Takoma Park MD   1:01:23   54:18  8:45
  379  64/194   4397 Julia Van Der Vink     18 Chevy Chase MD     57:27   54:18  8:45
  380  48/215   1117 Heather Delgrande      38 Gaithersburg MD  1:01:03   54:18  8:45
  381           4185 Jennifer Kline            Unknown XX         58:21   54:21  8:45
  382  45/204    232 Anna Ramirez           24 Montgomery Vill    58:06   54:22  8:45
  383  52/238   2294 Jeri Hanes             30 Louisville KY      57:26   54:22  8:45
  384  79/309   1680 Erin Christ            26 West Lafayette I   57:44   54:22  8:45
  385  46/212   1884 Severine Joly          41 Bethesda MD        55:34   54:23  8:45
  386  47/212   1157 Valerie La Traverse    43 Washington DC    1:01:16   54:26  8:46
  387           4214 Judy Hellerstine          Unknown XX       1:00:32   54:26  8:46
  388  53/238   3310 Nicole Gaertner        34 Washington DC      58:05   54:27  8:46
  389  46/204   3527 Kristen Johnson        24 Arlington VA       57:41   54:28  8:46
  390  80/309   2731 Christina Bowles       28 Bethesda MD        57:58   54:28  8:46
  391           7611 Kim Musleno                                  58:04   54:29  8:47
  392  48/212    453 Angela Lee             41 Highlande MD       58:04   54:30  8:47
  393  33/165    636 Suzette Bradbury       46 Kensington MD      57:42   54:31  8:47
  394  81/309   2607 Kate Loughney          26 Arlington VA       57:53   54:34  8:47
  395  34/165    840 Amy Sue Bean           45 Arlington VA       58:07   54:36  8:48
  396  35/165   1794 Leslie Fried           49 Kensington MD      55:55   54:37  8:48
  397  36/165    514 Lucy Shackelford       45 Arlington DC     1:00:43   54:38  8:48
  398  54/238   4460 Susan Klein            32 Germantown MD    1:00:54   54:38  8:48
  399  82/309   4277 Lilly Kan              27 Bethesda MD        57:43   54:39  8:48
  400  49/212    501 Wendy Sturges          41 Rockville MD       57:49   54:41  8:48
  401  47/204   1383 Amber Kuh              23 Crofton MD         57:49   54:42  8:49
  402  55/238   1431 Kathleen Clawson       34 Gaithersburg MD  1:00:56   54:42  8:49
  403  56/238   4503 Kari Sowell            30 Bethesda MD        58:27   54:43  8:49
  404  65/194    432 Clarissa Wilbur        16 Washington DC    1:01:37   54:44  8:49
  405  57/238   3465 Kiersten Henry         32 Olney MD         1:01:05   54:45  8:49
  406  83/309    584 Casandra Nied          29 McLean VA          56:04   54:45  8:49
  407  84/309    255 Jean Lee               27 Cambridge MA     1:01:03   54:45  8:49
  408   5/34    1409 Rona Eisen             55 Bethesda MD        58:40   54:49  8:50
  409  66/194   1190 Cecily Leahy           16 Arlington VA     1:01:18   54:49  8:50
  410  85/309    272 Meghan King            29 Silver Spring MD   56:26   54:50  8:50
  411  11/89     819 Shelley Hoogstraten    51 Washington DC      58:27   54:53  8:50
  412  67/194   1944 Diana Walter           17 Bethesda MD      1:01:47   54:53  8:50
  413  86/309    328 Sarah Solli            27 Baltimore MD     1:02:11   54:54  8:51
  414  49/215   3037 Michele Russ           39 Ft. Bragg NC     1:01:17   54:56  8:51
  415  37/165   1556 Elizabeth Brown        45 Belmont MA         58:29   54:57  8:51
  416  48/204   3287 Nora Phillips          20 Arlington VA     1:01:41   54:58  8:51
  417  58/238   2557 Rachel Lazor           33 Fredericksburg V   59:12   55:00  8:51
  418  59/238   2324 Anna Shariat           32 Bethesda MD      1:01:47   55:02  8:52
  419  60/238   3128 Amy Roy                34 Rockville MD     1:02:31   55:02  8:52
  420  61/238   2654 Sarah Nguyen           31 Laurel MD        1:02:51   55:02  8:52
  421  12/89     835 Pamela Laco            51 Potomac MD         58:45   55:03  8:52
  422  13/89     264 Debra Stencel          52 Washington DC      58:46   55:03  8:52
  423  87/309   4404 Kim Smith              29 Fairfax VA         58:29   55:03  8:52
  424  88/309   3549 Kerri Fisher           26 Gaithersburg MD    59:18   55:04  8:52
  425  89/309   1178 Lara Kelley            26 Raleigh NC       1:01:35   55:05  8:52
  426  38/165   1700 Jenifer Clement        49 Cary NC          1:01:08   55:05  8:52
  427  62/238    529 Elizabeth Imber        33 Bethesda MD      1:01:24   55:05  8:52
  428  49/204   1869 Jade Lubben            24 Clarksville MD   1:01:19   55:05  8:52
  429  39/165   1867 Kelli Monical          47 Clarksville MD   1:01:19   55:06  8:53
  430  50/212   1871 Laura Schlueter        44 Scottsdale AZ    1:01:20   55:07  8:53
  431  51/212   4477 Susan Luce             42 McLean VA          58:30   55:08  8:53
  432  50/215    758 Christina Birgin       39 Bethesda MD        58:52   55:10  8:53
  433  52/212    569 Mickie Simon           40 Washington DC      59:17   55:13  8:54
  434  53/212    570 Lorraine Simon         42 Washington DC      59:17   55:13  8:54
  435  63/238   2209 Angela Dalton          32 Rockville MD       59:31   55:13  8:54
  436  90/309   2472 Farinaz Edalat         29 McLean VA          58:59   55:13  8:54
  437  51/215    229 Michael Chase          38 Austin TX        1:03:54   55:15  8:54
  438  68/194   1370 Katie Blanchard        16 Silver Spring MD 1:01:20   55:16  8:54
  439  69/194   1368 Maria Laukaitis        14 Bethesda MD        56:55   55:16  8:54
  440  50/204   1335 Marta Wegorzewska      23 San Francisco CA 1:02:58   55:16  8:54
  441  70/194   2780 Jane Bartman           17 Washington DC    1:02:45   55:17  8:54
  442  40/165    550 Holly Scanlan          45 Potomac MD         56:38   55:17  8:54
  443  52/215   2078 Denise Cheung          38 Washington DC    1:01:43   55:17  8:54
  444  71/194   1394 Polly Terzian          14 Washington DC      58:21   55:18  8:54
  445  54/212   3591 Susan Pereles          44 Potomac MD       1:01:59   55:18  8:54
  446  72/194   3016 Tessa Morrison         15 Bethesda MD        58:39   55:19  8:55
  447  64/238     66 Michelle Snow          32 Bethesda MD      1:02:30   55:20  8:55
  448  65/238    130 Allison Hodge          31 Kensington MD    1:01:35   55:21  8:55
  449  91/309   2510 Lindsay Meyers         29 New York NY        59:35   55:23  8:55
  450  66/238    693 Christine Neidel       30 Rockville MD       58:53   55:24  8:55
  451  53/215   3284 Shannon Ross           35 Bethesda MD      1:02:07   55:26  8:56
  452  51/204   3512 Kristen Wheeler        24 Bethesda MD        55:26   55:26  8:56
  453  67/238   2190 Sandra Lopez           34 Germantown MD    1:01:58   55:26  8:56
  454  92/309   2408 Cori Pirzadeh          28 Bethesda MD        59:34   55:28  8:56
  455  52/204   1620 Cara Marie Manlandro   24 Derwood MD       1:02:21   55:29  8:56
  456  53/204   1539 Lee Evans              23 New York NY      1:02:01   55:31  8:56
  457  93/309   2866 Deborah Biswas         26 Silver Spring MD   59:28   55:31  8:56
  458  55/212   1378 Catherine Foot         44 Bethesda MD      1:01:55   55:31  8:57
  459  56/212    733 Stefanie Hutchins      42 University Park    59:41   55:31  8:57
  460  14/89    4315 Ruth Nunes             54 Cabin John MD      57:01   55:35  8:57
  461  54/215   1845 Francesca Churchill    36 Bethesda MD        56:51   55:35  8:57
  462  55/215   2605 Cheryl Slingerland     36 Silver Spring MD   59:30   55:35  8:57
  463  57/212   3009 Jody Bennett           43 Washington DC      58:46   55:37  8:57
  464  73/194   3147 Amy Eaton              17 Rockville MD       58:40   55:37  8:57
  465  54/204    540 Katherine Bail         21 Ellicott City MD 1:01:57   55:39  8:58
  466  94/309    917 Amanda Hamilton        28 Rockville MD       59:25   55:40  8:58
  467  55/204   4084 Christina Damiano      23 Bethesda MD      1:01:51   55:40  8:58
  468  56/204   2358 Whitney Hayre          22 Ne Washington DC 1:04:26   55:40  8:58
  469  58/212   1241 Linda Wu               44 Rockville MD     1:02:16   55:40  8:58
  470  59/212   2890 Jody Gan               43 Kensington MD      58:51   55:41  8:58
  471  57/204    120 Sophia Burton          23 Bethesda MD      1:02:49   55:41  8:58
  472  41/165   1819 Kathy Spirer           45 North Potomac MD 1:02:03   55:43  8:58
  473  56/215   1045 Mary Sanders           35 Gaithersburg MD    55:43   55:43  8:58
  474  60/212   2270 Sharon Fine            41 Bethesda MD        59:48   55:44  8:59
  475  42/165   4340 Barbara Sable          45 Potomac MD       1:03:04   55:45  8:59
  476  15/89     140 Pat Jarvis             53 Silver Spring MD 1:01:49   55:45  8:59
  477  58/204    657 Emily Lopez            24 Silver Spring MD   59:39   55:46  8:59
  478  95/309   1279 Jessica Cole           26 Rockville MD     1:00:00   55:46  8:59
  479  96/309   1075 Xanthe Scharff         28 Surf City NC     1:03:44   55:46  8:59
  480  97/309   1951 Emily Pitlick          28 Arlington VA     1:02:22   55:47  8:59
  481  68/238   1606 Samantha Mazo          31 Washington DC    1:02:05   55:47  8:59
  482  43/165   3510 Elizabeth Morrison     49 Silver Spring MD   57:18   55:48  8:59
  483  98/309   1768 Jaclyn Felsenfeld      28 Germantown MD    1:04:13   55:49  8:59
  484  44/165   4339 Cathy Obrien           49 Kensington MD    1:03:08   55:50  9:00
  485  61/212     96 Eve Mills              43 Bethesda MD        57:23   55:53  9:00
  486  45/165   1099 Celeste Wallander      47 Bethesda MD        57:23   55:53  9:00
  487  62/212   2835 Suzanne Muro           43 Silver Spring MD 1:02:24   55:55  9:00
  488  99/309   3238 Meredith Davis         28 Bethesda MD      1:04:42   55:57  9:01
  489 100/309   3239 Erin Davis             27 Gaitherburg MD   1:04:42   55:57  9:01
  490 101/309    940 Kimberly Levernier     29 Washington DC    1:03:05   55:57  9:01
  491 102/309    941 Lynn Langton           27 Washington DC    1:03:05   55:57  9:01
  492  63/212   2572 Suzanne Mascena        40 North Kingstown  1:02:23   55:58  9:01
  493 103/309    870 Angela Dipaola         26 Gaithersburg MD  1:02:34   55:58  9:01
  494 104/309    556 Julia Barkin           29 Providence RI      59:58   55:58  9:01
  495 105/309   2213 Adeline Ntam           29 Silver Spring MD   59:47   55:59  9:01
  496  57/215   1411 Melissa Nash           35 Olney MD         1:03:00   55:59  9:01
  497 106/309   2666 Jessica McGinnis       26 Chicago IL       1:00:13   55:59  9:01
  498  64/212    686 Melia Becker           41 Bethesda MD      1:00:07   56:00  9:01
  499   6/34     991 Suzanne Mink           56 Washington DC      59:34   56:01  9:01
  500  46/165   2149 Linda Johnson          47 Bowie MD         1:02:53   56:01  9:01
  501           4155 Marie-Yves Valcourt       Unknown XX       1:04:01   56:02  9:01
  502 107/309    811 Tamara Gordon          29 Bethesda MD        59:49   56:02  9:01
  503  74/194   1181 Michelle Klassen       13 Bethesda MD      1:02:20   56:03  9:02
  504  75/194   1165 Grace Takesuye         17 Chevy Chase MD     57:26   56:03  9:02
  505  69/238   4085 Jennifer Dakin         33 Arlington VA       59:46   56:06  9:02
  506  47/165    538 Deborah Drummond       45 Washington DC    1:03:36   56:08  9:02
  507  70/238   1853 Ana Puentes            33 Silver Spring MD 1:00:23   56:09  9:03
  508  65/212   4239 Arantza Murphy         43 Unknown XX       1:00:02   56:10  9:03
  509  58/215   1821 Jeannine Shavitz       39 Bethesda MD        59:37   56:11  9:03
  510  71/238   3521 Catherine Howard       31 Silver Spring MD 1:05:36   56:14  9:03
  511 108/309   1166 Kara Takesuye          25 Chevy Chase MD     57:38   56:15  9:03
  512 109/309    496 Lisa Collins           29 Rockville MD     1:03:24   56:16  9:04
  513  59/204   2893 Chelsea Balderson      22 Arlington VA       59:48   56:18  9:04
  514 110/309    796 Sara Chadwick          26 Bethesda MD      1:03:20   56:18  9:04
  515  66/212   2765 Ramona Schreiber       40 Silver Spring MD 1:03:36   56:18  9:04
  516  67/212    776 Livia Zien             42 Germantown MD    1:00:21   56:19  9:04
  517  60/204    619 Katie Murphy           24 Annapolis MD     1:04:39   56:21  9:04
  518  59/215   1503 Jane Heinrichs         39 Chevy Chase MD   1:02:36   56:21  9:04
  519  68/212   1542 Melissa Jiricko        42 Bethesda MD      1:03:20   56:21  9:05
  520 111/309   1569 Jennifer Lachance      29 North Bethesda M   59:56   56:22  9:05
  521  16/89     703 Sharon Putterman       50 Bethesda MD      1:02:36   56:23  9:05
  522  48/165   3537 Martha Corcoran        46 Silver Spring MD 1:02:26   56:23  9:05
  523 112/309   1376 Meagan Brady           29 Chevy Chase MD   1:07:11   56:23  9:05
  524  61/204   2943 Melissa Kim            20 Bethesda MD        59:36   56:24  9:05
  525  60/215   1323 Christina Lynn         38 Potomac MD         59:42   56:24  9:05
  526  61/215   2353 Allison Hilberg        37 San Francisco CA   57:42   56:25  9:05
  527  62/215   2952 Adena Friedman         39 Chevy Chase MD   1:04:23   56:25  9:05
  528  62/204   1221 Maya Craig             21 Bethesda MD      1:02:04   56:26  9:05
  529  69/212   2244 Niki Markoff           40 Dickerson MD       56:27   56:27  9:06
  530  76/194   1934 Ellen Oshinsky         19 Bethesda MD      1:02:42   56:28  9:06
  531   7/34    2925 Marta Vogel            57 Rockville MD     1:00:06   56:30  9:06
  532 113/309   1674 Kristen Haggerty       25 Bethesda MD      1:03:19   56:30  9:06
  533  63/215   4106 Cami Roth              38 Bethesda MD      1:03:19   56:30  9:06
  534  49/165    483 Louise Kistler         45 Potomac MD       1:03:29   56:30  9:06
  535  17/89    1610 Katharine Tuchman      50 Bethesda MD      1:03:02   56:33  9:06
  536  70/212     84 Kelly Clements         42 Arlington VA     1:00:31   56:35  9:07
  537  64/215   3045 Jodi Reicin            39 Potomac MD       1:02:48   56:37  9:07
  538 114/309   3312 Tedi Asher             25 Bethesda MD      1:00:52   56:37  9:07
  539  77/194   2926 Cara Applestein        18 Rockville MD     1:02:39   56:38  9:07
  540  63/204   3015 Jessica Guzik          24 Lexington VA     1:00:52   56:38  9:07
  541  64/204   2282 Meaghan Treanor        24 Washington DC    1:03:40   56:39  9:07
  542  65/204   4380 Hayley Reynolds        22 N. Bethesda MD   1:00:57   56:41  9:08
  543  18/89    1391 Fatima Dsouza          50 Silver Spring MD 1:02:42   56:41  9:08
  544 115/309   1851 Emilie Littlehales     27 New York NY      1:05:30   56:42  9:08
  545  71/212   4314 Hilary Klein           40 Bethesda MD      1:03:41   56:43  9:08
  546 116/309   4059 Kristin Rodrigues      27 Gaithersburg MD  1:01:02   56:46  9:09
  547  72/238   1524 Kristine Oleson        34 Kensington MD    1:02:50   56:46  9:09
  548  50/165   1061 Marian Zobler          45 Bethesda MD      1:05:36   56:48  9:09
  549  65/215   1820 Monica Spurgeon        37 North Potomac MD 1:03:07   56:49  9:09
  550  19/89    2103 Laura Chen             53 Bethesda MD      1:03:22   56:50  9:09
  551 117/309   1914 Colleen Sindall        26 Bethesda MD        58:27   56:50  9:09
  552  73/238    172 Jennifer Barb          32 Washington DC      59:49   56:51  9:09
  553 118/309    528 Murph Baker            27 Gaithersburg MD  1:06:05   56:52  9:09
  554  78/194   2372 Karen Orrick           19 Bethesda MD      1:00:46   56:52  9:09
  555  66/204    631 Lana Elkhatib          24 North Potomac MD   57:58   56:53  9:10
  556 119/309    366 Devon Kuehn            29 Washington DC    1:03:17   56:54  9:10
  557 120/309   2968 Genna Hymowitz         28 Rockville MD     1:00:48   56:55  9:10
  558  66/215   2871 Winnie Hahn            36 Bethesda MD      1:03:05   56:55  9:10
  559  51/165   1043 Mary Ann Wagner Hains  49 Bethesda MD      1:00:48   56:56  9:10
  560  52/165   1008 Viki Fox               48 Sullivans Islan  1:00:36   56:57  9:10
  561  72/212   1986 June Lee               42 Bethesda MD      1:03:00   56:58  9:10
  562  67/215    479 Stacy Weinberger       37 Burlington VT    1:03:40   56:59  9:11
  563  73/212    893 Michelle Price         42 Bethesda MD      1:05:48   56:59  9:11
  564 121/309   2098 Becky Farris           28 Austin TX        1:03:48   57:00  9:11
  565  20/89     444 Marcia Kaplan          54 Bethesda MD      1:00:31   57:01  9:11
  566 122/309    936 Regina Laurienzo       26 Washington DC    1:03:59   57:02  9:11
  567  74/238   2128 Stephanie Selmer       31 Takoma Park MD   1:03:18   57:02  9:11
  568 123/309    734 Myriah Perkins         27 New York NY      1:03:04   57:03  9:11
  569  68/215   2920 Sarah O'Herron         36 Silver Spring MD 1:05:08   57:03  9:11
  570  75/238   3114 Kate Cardamone         33 Washington DC    1:05:13   57:04  9:11
  571  76/238    830 Julie Smith            33 Vienna VA        1:00:31   57:05  9:12
  572  79/194   2470 Maddy Brown            16 Bethesda MD      1:04:34   57:05  9:12
  573 124/309     53 Gabby Etrog            28 New York NY      1:05:02   57:06  9:12
  574  80/194   3191 Alison Baruch          13 North Potomac MD 1:00:40   57:06  9:12
  575  81/194   4447 Molly Hayes            16 Arlington VA       59:39   57:07  9:12
  576  69/215    394 Markley Bavinger       36 San Francisco CA 1:03:49   57:08  9:12
  577 125/309   2964 Laure Veissiere        26 Takoma Park MD   1:05:10   57:08  9:12
  578  77/238   3477 Veronica Chau          30 Bethesda MD      1:03:55   57:08  9:12
  579  70/215   2556 Anne-Marie Fiala       39 Chevy Chase MD   1:00:30   57:08  9:12
  580  82/194   3285 Ciara McCarthy         16 Bethesda MD      1:03:30   57:08  9:12
  581  67/204    458 Keyana Farkondepay     23 Arlington VA     1:04:22   57:09  9:12
  582  83/194   2981 Bridget Connelly       15 McLean VA        1:03:30   57:09  9:12
  583  84/194    639 Susannah Savage        16 Bethesda MD      1:05:18   57:10  9:12
  584   8/34     795 Carol Truppi           55 Bethesda MD      1:04:13   57:11  9:12
  585  68/204   1031 Hima Ekanadham         24 Washington DC    1:03:42   57:11  9:13
  586  74/212    887 Ann Wagnblas           41 Bethesda MD      1:04:27   57:11  9:13
  587  85/194   2956 Caroline Lippold       16 Bethesda MD      1:03:18   57:11  9:13
  588  71/215    773 Theresa Avila Curtis   38 Silver Spring MD 1:04:03   57:11  9:13
  589  72/215   1687 Melissa Kim            39 Potomac MD       1:03:21   57:13  9:13
  590  73/215   2568 Jamie Stauffer         38 Fairfax VA       1:01:01   57:13  9:13
  591  75/212   1894 Clare Karpinski        40 Rockville MD     1:03:47   57:13  9:13
  592  69/204   2015 Lauren McPartland      23 Laytonsville MD  1:00:36   57:14  9:13
  593  70/204    684 Jennifer Finci         22 Rockville MD     1:00:58   57:15  9:13
  594  76/212   2884 Debbie Horowitz        40 Bethesda MD      1:05:11   57:17  9:13
  595  74/215   2755 Jordana Goodstein      37 Bethesda MD      1:04:04   57:17  9:14
  596  86/194   2367 Larisa Antonisse       15 Silver Spring MD 1:05:17   57:18  9:14
  597  87/194   2741 Jennifer Sholar        15 Silver Spring MD 1:00:32   57:18  9:14
  598  71/204   1644 Lauren Puca            24 N. Potomac MD    1:04:49   57:18  9:14
  599  77/212    789 Mary Tavakoli          40 Bethesda MD      1:03:55   57:19  9:14
  600  72/204   3317 Jennifer Koh           22 Columbia MD      1:05:37   57:20  9:14
  601  75/215   2598 Lydia Rodin            38 South Dartmouth    58:53   57:20  9:14
  602  73/204   3122 Abigail Yerxa          22 Bethesda MD      1:05:54   57:23  9:14
  603  78/238     16 Andrea Cheplo          33 Bethesda MD      1:04:33   57:23  9:14
  604 126/309     79 Leigh Oliver           29 Washington DC    1:04:00   57:23  9:14
  605 127/309   1846 Olga Chistyakova       27 North Bethesda M 1:00:49   57:23  9:15
  606 128/309   1818 Joanna Georgatsos      28 Bethesda MD      1:04:08   57:24  9:15
  607  53/165    740 Susan Koehn            45 Bethesda MD      1:01:11   57:29  9:15
  608   1/4     1834 Hilary Loewenstein      2 Boyds MD         1:01:47   57:30  9:16
  609  79/238   3427 Julie Koser            31 Silver Spring MD 1:03:56   57:30  9:16
  610  54/165   2562 Susan Mangan           47 Potomac MD       1:05:37   57:30  9:16
  611  88/194   2845 Beth Conlon            17 Montgomery Vill  1:05:32   57:34  9:16
  612  76/215   1260 Linda Musto            37 Potomac MD       1:05:27   57:34  9:16
  613  74/204   2032 Noemi Nowakowski       20 Bethesda MD      1:06:01   57:35  9:16
  614  75/204   1608 Mallori Browne         24 Bethesda MD      1:03:42   57:35  9:16
  615  55/165   1760 Selene Altobelli       48 Silver Spring MD 1:01:15   57:35  9:16
  616 129/309   3342 Naomi Andrews          27 Silver Spring MD 1:04:23   57:36  9:17
  617 130/309   3123 Laura Kennedy          27 Arlington VA     1:03:40   57:38  9:17
  618  89/194   4140 Emma Benson-Xu         14 Bethesda MD      1:04:23   57:38  9:17
  619  78/212   2422 Patty Green            44 Chevy Chase MD     59:07   57:42  9:18
  620  90/194   3011 Sophie Auffret         15 Silver-Spring MD 1:01:16   57:44  9:18
  621  21/89     460 Linda Brady            54 Rockville MD     1:01:51   57:44  9:18
  622 131/309     97 Carla Atkins           27 Ardmore PA         59:02   57:45  9:18
  623  22/89    1897 Maria Cepeda           50 Silver Spring MD 1:01:36   57:45  9:18
  624  77/215   3268 Julie Celeste          39 Bethesda MD      1:01:19   57:46  9:18
  625  91/194   1746 Tamar Bardin           15 Chevy Chase MD   1:01:45   57:46  9:18
  626 132/309   2855 Gina Casciano          26 Woodbridge VA    1:03:55   57:47  9:18
  627  79/212   2166 Cece Finan             43 Chevy Chase MD   1:05:04   57:49  9:19
  628  76/204   2847 Molly Conlon           23 Montgomery Vill  1:05:39   57:49  9:19
  629  77/204    125 Julie Fox              24 Rockville MD       59:30   57:50  9:19
  630  92/194   1784 Caroline Coats         12 Bethesda MD      1:04:16   57:52  9:19
  631  80/212   4411 Heather Sine           41 Washington DC    1:04:09   57:52  9:19
  632  93/194   1150 Megan Salvail          15 Olney MD         1:07:36   57:54  9:20
  633  94/194   1082 Hannah Ziherl          19 Chicago IL       1:05:42   57:54  9:20
  634  78/204   1081 Sarah Ziherl           21 Washington DC    1:05:42   57:54  9:20
  635  78/215   3552 Rebecca San Sebastian  36 Olney MD         1:05:35   57:56  9:20
  636 133/309   2917 Janet Gallagher        29 Potomac MD       1:07:14   57:59  9:20
  637  79/215    722 Rebecca Heagy          37 Silver Spring MD 1:04:50   57:59  9:20
  638  56/165    683 Jill Finci             47 Rockville MD     1:01:44   58:00  9:20
  639   9/34    1658 Karen Shaines          55 Chevy Chase MD   1:01:56   58:01  9:21
  640 134/309   2985 Amanda Ramsdell        26 Bethesda MD      1:05:11   58:02  9:21
  641 135/309   1428 Traci Lee              27 Rockville MD     1:06:12   58:02  9:21
  642  81/212    573 Deborah Shiffman       41 Rye Brook NY     1:04:13   58:03  9:21
  643  80/215   1389 Michele Strachan       36 Kensington MD    1:05:36   58:05  9:21
  644  95/194    201 Kristina Laukaitis     14 Bethesda MD        59:45   58:06  9:21
  645  57/165   1826 Cathleen Leuba         47 Chevy Chase MD   1:01:21   58:07  9:21
  646  96/194    945 Rahel Fainchtein       16 Potomac MD         59:39   58:07  9:22
  647  79/204    165 Katherine Pankow       22 Naperville IL    1:01:44   58:07  9:22
  648 136/309   4272 Tabitha Naylor         28 McLean VA        1:05:51   58:07  9:22
  649  23/89    2254 Edie Britman           52 Bethesda MD      1:06:13   58:08  9:22
  650  82/212   3038 Diane Klein            40 Bethesda MD      1:04:56   58:08  9:22
  651  83/212    985 Karen Bookhultz        42 Brookeville MD   1:04:56   58:09  9:22
  652  97/194   3532 Katie McGowan          15 Potomac MD       1:06:11   58:09  9:22
  653  80/204   1227 Meredith Dicker        22 Ann Arbor MI     1:05:29   58:09  9:22
  654  80/238     13 Mila Clifton           34 Potomac MD       1:05:04   58:12  9:22
  655  24/89    3131 Terri Lopatka          53 Silver Spring MD 1:05:06   58:12  9:22
  656  84/212   1770 Allyn Finegolda        43 Washington DC    1:02:00   58:13  9:23
  657  81/238   3425 Sarah Mitsch           31 Silver Spring MD 1:02:11   58:14  9:23
  658 137/309   3426 Kate Mitsch            27 Silver Spring MD 1:02:10   58:14  9:23
  659  81/215   4154 Lesley Vito            39 Bethesda MD      1:05:03   58:14  9:23
  660  82/215    913 Rita Smithdeal         38 Bethesda MD      1:06:56   58:15  9:23
  661  82/238   4273 Tanta Caraman          33 Washington DC    1:05:58   58:15  9:23
  662  98/194   2187 Maureen Giusti         19 Olney MD         1:05:39   58:17  9:23
  663  83/238   2278 Kerry Beauchemin       30 Rockville MD     1:05:13   58:17  9:23
  664  84/238   2999 Jean Hunleth           32 Rockville MD     1:01:19   58:18  9:23
  665  25/89     898 Cynthia Williams       51 Bethesda MD      1:05:15   58:18  9:23
  666  85/212    780 Katherine Laessig      42 Washington DC    1:05:24   58:19  9:23
  667  86/212    899 Jane Gilpin            43 Bethesda MD      1:05:15   58:19  9:24
  668  85/238   2410 Elizabeth Hoettels     34 Washington DC    1:05:04   58:20  9:24
  669  99/194    371 Dianne Walsh           14 Bethesda MD      1:04:20   58:20  9:24
  670  58/165   4129 Connie Carageorgis     45 Potomac MD       1:04:36   58:21  9:24
  671  87/212    567 Joanna Rosen           42 Sioux Falls SD   1:01:32   58:21  9:24
  672 100/194   3570 Georgia Howard         14 Silver Spring MD 1:02:15   58:21  9:24
  673  86/238   1971 Kathleen Sheridan      30 Washington DC    1:02:32   58:22  9:24
  674  87/238   4318 Molly Farley           31 Kensington MD    1:06:13   58:22  9:24
  675  88/238    761 Amelia Shakocius       32 Annapolis MD     1:04:31   58:23  9:24
  676  88/212   1180 Jodie Boudreaux        44 Bethesda MD      1:05:01   58:25  9:24
  677 138/309   1785 Brigid Murphy          26 Washington DC    1:01:54   58:25  9:25
  678  26/89    1397 Karen Simon            50 Bethesda MD      1:07:05   58:26  9:25
  679  83/215    348 Susan Fazio            39 Urbana MD        1:05:50   58:26  9:25
  680 139/309   4426 Elizabeth Canter       27 Bethesda MD      1:01:30   58:26  9:25
  681  89/212   2287 Christine Wallace      41 Bethesda MD      1:05:34   58:27  9:25
  682 101/194   4368 Juliana Hanle          17 Washington DC    1:05:57   58:30  9:25
  683  10/34    4391 Alice Gasch            58 Washington DC    1:02:28   58:31  9:25
  684  81/204   1886 Jennifer Greenhut      21 Olney MD         1:06:37   58:31  9:25
  685  89/238    866 Jill Pemberton         31 Rockville MD     1:04:53   58:33  9:26
  686  82/204   2466 Carolyn Rosenthal      21 Washington DC    1:02:06   58:35  9:26
  687  84/215   2760 Alisa Lewis            36 Washington DC    1:02:52   58:35  9:26
  688  90/212    262 Claire Verpoort        43 Bethesda MD      1:06:47   58:35  9:26
  689 140/309    500 Lauren Sparber         26 Washington DC    1:06:27   58:38  9:26
  690 102/194   1596 Arielle Kleinman       18 Bethesda MD      1:06:01   58:39  9:27
  691 103/194   4109 Soraya Shehata         18 Bethesda MD      1:05:14   58:39  9:27
  692  85/215   3296 Rebecca Kullback       37 Bethesda MD      1:02:49   58:40  9:27
  693  59/165   2524 Mary Feller            46 Washington DC    1:06:09   58:43  9:27
  694 104/194   1689 Carly Thayer           14 Potomac MD       1:04:44   58:43  9:27
  695  83/204   3209 Marisa Astiz           23 Rockville MD     1:05:44   58:44  9:28
  696  86/215   4165 Susan Tropea           39 Kensington MD    1:05:16   58:44  9:28
  697 141/309   7595 Joaquin Sequeira       28 Silver Spring MD 1:05:54   58:44  9:28
  698  90/238   1231 Laura Broughton        34 Silver Spring MD 1:05:47   58:45  9:28
  699  91/238   1541 Stacy Belf             34 Silver Spring MD 1:06:37   58:46  9:28
  700  91/212   4193 Susie Hinton           42 Kensington MD    1:05:36   58:47  9:28
  701  92/212   3199 Nancy Liffmann         40 Bethesda MD      1:06:45   58:47  9:28
  702  60/165    599 Diana Haddad           47 Bethesda MD      1:05:24   58:47  9:28
  703  92/238   1222 Laura Flyer            30 New York NY      1:04:58   58:47  9:28
  704  87/215   1452 Suzann Burk            37 Bethesda MD      1:05:19   58:48  9:28
  705 105/194   2070 Becca Faigen           17 Potomac MD       1:02:56   58:48  9:28
  706  88/215   3360 Carla Henneberry       36 Bethesda MD      1:06:50   58:48  9:28
  707  93/212    574 Greer Mendel           43 Bethesda MD      1:02:36   58:49  9:28
  708  93/238   2807 Michelle Gins          30 Silver Spring MD 1:05:14   58:49  9:28
  709  94/212   1028 Erica Yuan             41 Kensington MD    1:05:51   58:49  9:28
  710  94/238   4228 Rachel Schlanger       30 New York NY      1:05:00   58:49  9:28
  711  89/215   1336 Susan Fiorella         37 Bethesda MD      1:06:43   58:49  9:28
  712  90/215   1825 Laurie Stempler        39 Poolesville MD   1:05:08   58:50  9:28
  713  84/204    561 Molly Urciolo          23 Bethesda MD      1:07:06   58:50  9:29
  714 142/309    211 Sara Navidi            26 Gaithersburg MD  1:02:39   58:51  9:29
  715  11/34     280 Adele Cotter           55 Napa CA          1:05:59   58:51  9:29
  716 143/309   1402 Melissa Blum           27 Chevy Chase MD   1:05:03   58:51  9:29
  717  95/238    146 Jessica Palladino      33 Silver Spring MD 1:05:08   58:52  9:29
  718  96/238   1855 Carley Kam             33 Bethesda MD      1:07:00   58:53  9:29
  719  61/165   1978 Greta Nicoletti        48 Bethesda MD      1:06:17   58:54  9:29
  720  85/204   1734 Kristin Loomis         22 Silver Spring MD 1:02:29   58:54  9:29
  721 144/309   1981 Amy Levine             25 Silver Spring MD 1:05:48   58:54  9:29
  722  91/215    903 Jodi Leitzinger        39 Falls Church VA  1:06:07   58:54  9:29
  723  97/238   2803 Rose-Marie Karlsson    32 Washington DC    1:06:56   58:56  9:29
  724  95/212   1518 Nancy Dofflemyer       40 Germantown MD    1:05:18   58:57  9:30
  725  92/215     43 Kelly Chase            35 Boston MA        1:06:14   58:57  9:30
  726  98/238   2969 Katherine Calder       34 Alexandria VA    1:07:27   58:58  9:30
  727  99/238   2170 Hyejin Kim             33 Rockville MD     1:01:59   58:58  9:30
  728  96/212    319 Denise Taylor          42 Columbia MD      1:05:18   58:59  9:30
  729 106/194   3418 Nora Taranto           17 Bethesda MD      1:06:26   58:59  9:30
  730 107/194   3410 Lillian Li             17 Potomac MD       1:06:27   59:00  9:30
  731  97/212   3448 Nicolette Borek        44 Bethesda MD      1:05:02   59:01  9:30
  732  86/204   1594 Emily Kleinman         24 Bethesda MD      1:06:26   59:03  9:31
  733  87/204   3398 Kelly Krull            24 Montgomery Vill  1:03:20   59:03  9:31
  734  93/215   3003 Sylvia George          37 Germantown MD    1:06:58   59:05  9:31
  735  94/215   2468 Marie Guinto           36 Washington DC    1:06:58   59:05  9:31
  736 145/309   1332 Nicole Nance           25 College Park MD  1:05:18   59:05  9:31
  737  88/204   1331 Rachel Larson          24 College Park MD  1:05:19   59:06  9:31
  738  95/215   1296 Sheri Youens-Un        35 Silver Spring MD 1:05:58   59:06  9:31
  739  62/165   1171 Joanne Barlia          45 Washington DC    1:03:03   59:07  9:31
  740 146/309    681 Alexis Meyer           25 Fairfax VA       1:05:42   59:07  9:31
  741  98/212   2206 Kristin O'Donnell      40 Kensington MD    1:05:57   59:08  9:31
  742 100/238    129 Eileen Murphy          31 Silver Spring MD 1:06:54   59:08  9:31
  743  99/212   2343 Klara Reilly           41 McLean VA        1:03:20   59:09  9:32
  744 101/238   2478 Tara Beach             30 Arlington VA     1:03:18   59:10  9:32
  745  63/165   1961 Diane Poole            49 Kensington MD    1:02:49   59:11  9:32
  746  96/215    742 Laura Sildon           39 Kensington MD    1:05:50   59:12  9:32
  747  97/215   2080 Karin Marshall         38 Potomac MD       1:06:02   59:12  9:32
  748 147/309   1215 Danielle Faucher       28 Washington DC    1:02:41   59:13  9:32
  749 102/238   2575 Galina Mitskevitch     30 Bethesda MD      1:02:52   59:13  9:32
  750  89/204   4576 Sally Kiernan          23 Washington DC    1:05:20   59:13  9:32
  751 148/309   3126 Andrea Brault          25 Washington DC    1:07:13   59:14  9:32
  752 103/238   2730 Emily Ward             31 Baltimore MD     1:05:48   59:14  9:32
  753 108/194   2344 Katie Reilly           18 McLean VA        1:03:20   59:15  9:32
  754   1/5     1387 Mary Kate Berglund     67 Richmond VA      1:06:24   59:17  9:33
  755 104/238   3386 Kavita Avula           34 Washington DC    1:03:35   59:18  9:33
  756  98/215    228 Allison Chase          38 Austin TX        1:07:58   59:18  9:33
  757 149/309   3187 Isabel To              25 Bethesda MD      1:05:58   59:18  9:33
  758  99/215   1863 Anna Padlan            38 Rockville MD     1:06:52   59:19  9:33
  759  64/165   1216 Giovanna Chiedi        47 Washington DC    1:02:47   59:19  9:33
  760  65/165   3341 Bridget Bean           45 Annandale VA     1:05:42   59:20  9:33
  761  90/204    904 Maureen Loman          20 Bethesda MD      1:06:28   59:21  9:34
  762 109/194   2959 Renitatr Tyler-Richar  17 Rockville MD     1:06:25   59:22  9:34
  763 150/309    338 Lauren Fredericks      29 Chicago IL       1:06:37   59:22  9:34
  764  66/165   3335 Karen Kirwan           47 Bethesda MD      1:03:14   59:23  9:34
  765 105/238    335 Lisa Bernstein         34 Bethesda MD      1:06:38   59:23  9:34
  766 106/238   1287 Melanie Cashdan        33 Washington DC    1:07:03   59:24  9:34
  767  91/204   1704 Hilary Goldberg        22 Washington DC    1:06:45   59:24  9:34
  768 100/215   1297 Amanda Viragh          36 Gaithersburg MD  1:03:19   59:24  9:34
  769 101/215    718 Melissa Davidson       39 Chevy Chase MD   1:07:59   59:25  9:34
  770  27/89    2722 Iris Madison           52 Gaithersburg MD  1:02:45   59:25  9:34
  771 100/212   2536 Samantha Cronic        40 Washington DC    1:06:25   59:25  9:34
  772 107/238   1203 Lauren Ratner          33 Washington DC    1:03:36   59:25  9:34
  773 108/238    153 Amanda Schall          31 Silver Spring MD 1:07:41   59:28  9:35
  774  92/204   3338 Allie Petit            23 Atlanta GA       1:07:18   59:29  9:35
  775  28/89     177 Dena Belinkoff         53 Bethesda MD      1:03:04   59:29  9:35
  776  93/204   1564 Tejal Patel            22 Montgomery Vill  1:06:23   59:30  9:35
  777 151/309   4511 Melissa Nicolaou       27 Bethesda MD      1:09:29   59:31  9:35
  778  67/165   2280 Pamela Harris          46 Potomac MD       1:07:48   59:32  9:35
  779 109/238   3253 Erika Borden           30 Kensington MD    1:05:35   59:33  9:35
  780 152/309   3306 Jenny Rainey           26 Dickerson MD     1:01:07   59:33  9:35
  781 101/212   4118 Stefanie Greenberg     40 Rockville MD     1:06:28   59:33  9:35
  782  29/89    2188 Janie Camarca          50 Annandale VA     1:03:09   59:34  9:36
  783 110/238   2163 Jennifer Aponte        33 Columbia MD      1:00:53   59:34  9:36
  784  30/89    2661 Ayse Talen             50 Bethesda MD      1:10:16   59:35  9:36
  785 102/215    727 Annenoel Occhialino    36 Silver Spring MD 1:07:41   59:36  9:36
  786 103/215     32 Monika Coflin          37 Rockville MD     1:06:47   59:36  9:36
  787           4403 Stephanie Stricklin       New York NY      1:06:06   59:37  9:36
  788 153/309    942 Aleksandra Gajdeczka   28 Washington DC    1:03:47   59:38  9:36
  789  94/204    610 Sheila Rustgi          23 Potomac MD       1:07:36   59:38  9:36
  790 154/309   1915 Faith Murray           25 Bethesda MD      1:05:49   59:38  9:36
  791 155/309   3318 Alison McGuire         28 Williamsburg VA  1:07:16   59:38  9:36
  792 111/238    623 Tori Struzziero        30 Bethesda MD      1:06:53   59:41  9:37
  793 156/309   3492 Lindsay Fisher         26 Potomac MD       1:07:01   59:41  9:37
  794  95/204   1595 Madeleine Kleinman     21 Bethesda MD      1:07:06   59:41  9:37
  795  96/204   2686 Sarah Jones            22 Bethesda MD      1:07:07   59:42  9:37
  796 112/238   4319 Mandy Wong             32 Rockville MD     1:05:58   59:43  9:37
  797 157/309   3081 Erika Hazelton         28 Odenton MD       1:07:26   59:44  9:37
  798 104/215   1090 Susan Mentz            35 Washington DC    1:07:19   59:44  9:37
  799 113/238   2529 Jessica Tree           30 Washington DC    1:06:53   59:44  9:37
  800  97/204    790 Irene Tavakoli         20 Bethesda MD      1:09:26   59:45  9:37
  801 102/212   4117 Brenda Whitehurst      44 Potomac MD       1:05:47   59:45  9:37
  802 114/238    339 Martina Gregorova      32 Rockville MD     1:07:52   59:48  9:38
  803 115/238    215 Rebecca Burow          31 Rockville MD     1:07:52   59:48  9:38
  804 105/215   3148 Katherine Nesbitt      36 Washington DC    1:04:11   59:49  9:38
  805  98/204   3672 Tiffanii Woolfolk      24 Annandale VA     1:06:56   59:49  9:38
  806 103/212   2035 Jennifer Main          41 Chevy Chase MD   1:05:58   59:50  9:38
  807  99/204    196 Sophia Peters          23 Washingtong DC   1:06:48   59:51  9:38
  808 110/194   1407 Caroline Bartholomew   16 Bethesda MD      1:06:07   59:52  9:38
  809 158/309   2805 Michelle Marquardt     27 Rockville MD     1:06:58   59:52  9:39
  810 159/309   3513 Nikole Winn            26 Bethesda MD        59:53   59:53  9:39
  811  68/165   1766 Doris Connell          45 Rockville MD     1:08:10   59:53  9:39
  812 104/212   4278 Sandra Yeilding        41 Gaithersburg MD  1:06:51   59:54  9:39
  813  31/89     963 Leslie Shedlin         53 Bethesda MD      1:07:02   59:55  9:39
  814 100/204   2426 Jessica Greenbaum      24 Potomac MD       1:01:23   59:56  9:39
  815 160/309    782 Amanda Reuss           27 Bethesda MD      1:07:15   59:56  9:39
  816 101/204   3584 Lindsay Montgomery     22 Silver Spring MD 1:08:23   59:57  9:39
  817 102/204   1705 Sarah Shpack           20 Rockville MD     1:07:04   59:57  9:39
  818 111/194   1233 Calla Morrison         17 Bethesda MD      1:06:11   59:57  9:39
  819 116/238   3678 Kathryn Moore          30 Arlington VA     1:06:44   59:58  9:40
  820 117/238   4296 Sarah Echols           34 Bethesda MD      1:06:56 1:00:00  9:40
  821  32/89    1461 Adena Adler            50 Haddonfield NJ   1:06:13 1:00:01  9:40
  822 105/212     52 Rose Cohen             43 Washington DC    1:07:58 1:00:02  9:40
  823  69/165   1471 Katherine Cowan        48 Kensington MD    1:08:53 1:00:02  9:40
  824 106/215   2843 Angela Liang           38 Washington DC    1:06:50 1:00:03  9:40
  825 103/204   3252 Julia Crantz           24 N. Bethesda MD   1:07:09 1:00:03  9:40
  826 106/212   1714 Ellie Abramowitz       43 Bethesda MD      1:09:26 1:00:04  9:40
  827 104/204    862 Melissa Beck           21 Chevy Chase MD   1:07:43 1:00:04  9:40
  828 105/204   3142 Melissa Beck           21 Bethesda MD      1:07:44 1:00:05  9:40
  829  33/89    3435 Elizabeth Pennisi      53 Arlington VA     1:08:09 1:00:05  9:41
  830 107/212   1412 Karen Dahut            44 Gaithersburg MD  1:08:03 1:00:06  9:41
  831 106/204   1084 Julia Hecht            22 Chevy Chase MD   1:03:24 1:00:07  9:41
  832 107/204   2083 Jacqueline Connor      22 Washington DC    1:04:21 1:00:08  9:41
  833 107/215   3155 Wendy Heibel           37 Bethesda MD      1:07:29 1:00:09  9:41
  834 118/238   4160 Emily Rogers           30 Bethesda MD      1:07:26 1:00:09  9:41
  835 108/212   1631 Cathy Steele           43 Potomac MD       1:07:57 1:00:11  9:41
  836 112/194   3528 Jennifer Schultz       18 Bethesda MD      1:07:56 1:00:11  9:42
  837 109/212   3642 Lisa Hopson            41 Washington DC    1:08:57 1:00:11  9:42
  838 110/212    937 Christine Long         40 Boyds MD         1:06:33 1:00:12  9:42
  839 108/204   2933 Annie Balcells         23 Brookline MA     1:03:21 1:00:14  9:42
  840  34/89     625 Melissa Polott         53 Bethesda MD      1:04:05 1:00:14  9:42
  841 108/215   2008 Maria Welsh            39 Kensington MD    1:07:03 1:00:15  9:42
  842 109/204   4459 Tiziana Difabio        24 Rockville MD     1:08:46 1:00:15  9:42
  843 109/215    589 Julie Gelsey           37 Manhattan Beach  1:06:18 1:00:15  9:42
  844 161/309   2168 Ida Wahlquist-Ortiz    26 Chevy Chase MD   1:08:43 1:00:17  9:43
  845 111/212   1803 Nancy Devore           44 Arlington VA     1:08:21 1:00:18  9:43
  846 110/204   2517 Samantha Schwartz      24 Albuquerque NM   1:09:57 1:00:18  9:43
  847  35/89    4131 Robyn Gault            51 Gaithersburg MD  1:08:20 1:00:18  9:43
  848 112/212   2947 Margaret O'Herron      42 Silver Spring MD 1:08:23 1:00:19  9:43
  849  36/89    3332 Katie Grinberg         54 Cabin John MD    1:07:11 1:00:20  9:43
  850 113/212   1158 Anne Gordon            42 Silver Spring MD 1:07:25 1:00:22  9:43
  851  70/165   2243 Fran Simons            48 Ashton MD        1:06:37 1:00:24  9:44
  852 111/204   2010 Abbie Lovell           21 Washington DC    1:08:51 1:00:24  9:44
  853 162/309   2185 Jennifer Williams      26 Silver Spring MD 1:06:46 1:00:25  9:44
  854  37/89    2436 Linda Davanzo          54 Rockville MD     1:08:52 1:00:25  9:44
  855 114/212   2808 Korin Wilson           42 Darnestown MD    1:06:52 1:00:25  9:44
  856 115/212   1270 Nancy Altemus          43 Kensington MD    1:07:13 1:00:25  9:44
  857 119/238   3449 Mitra Pitts            30 Washington DC    1:09:53 1:00:26  9:44
  858 116/212   3666 Darian Packard         41 Chevy Chase MD   1:03:57 1:00:26  9:44
  859 112/204    825 Jocelin Shalom         23 Chicago IL       1:07:58 1:00:27  9:44
  860 163/309   4188 Meg Corckett           26 Bethesda MD      1:04:30 1:00:27  9:44
  861 117/212   2953 Beth Salcedo           41 Bethesda MD      1:07:45 1:00:29  9:44
  862  12/34    1088 Marian Block           55 Bethesda MD      1:06:38 1:00:29  9:44
  863 120/238   4393 Julie McLain           34 Clarksville MD   1:04:08 1:00:30  9:45
  864 110/215   1261 Karen Schuler          39 Potomac MD       1:08:22 1:00:30  9:45
  865 111/215   3546 Christa Zerbe          39 Rockville MD     1:08:05 1:00:31  9:45
  866  38/89    1910 Mary Low               53 Germantown MD    1:07:00 1:00:31  9:45
  867  71/165   1337 Mary Laux              48 Rockville MD     1:08:35 1:00:34  9:45
  868 121/238    331 Amy Occhialino         33 Boston MA        1:08:41 1:00:36  9:45
  869 112/215   1373 Carrie Mulford         38 Bethesda MD      1:00:37 1:00:37  9:46
  870  72/165   2440 Lyda Astrove           49 Rockville MD     1:09:40 1:00:37  9:46
  871 113/204   2323 Jessica Ingram         23 Severna Park MD  1:04:17 1:00:38  9:46
  872 118/212   1371 Cindy Shaw             44 Silver Spring MD 1:06:42 1:00:38  9:46
  873  73/165   3542 Cara Chang             46 Takoma Park MD   1:07:55 1:00:39  9:46
  874 164/309   1449 Megan O'Brien          28 Arlington VA     1:06:47 1:00:40  9:46
  875 165/309   1448 Elsbeth O'Brien        28 Chicago IL       1:06:47 1:00:41  9:46
  876  74/165   1033 Sharon Fein            47 Potomac MD       1:08:56 1:00:41  9:46
  877 114/204    642 Mikaela Lefrak         20 McLean VA        1:04:31 1:00:41  9:46
  878 122/238   3662 Anna-Marie Voorthuis   32 Bethesda MD      1:04:15 1:00:42  9:47
  879 113/194   2739 Alexis Bryant          12 Kensington MD    1:07:13 1:00:43  9:47
  880 119/212   3538 Mk Holohan             40 Silver Spring MD 1:07:59 1:00:43  9:47
  881 113/215   2737 Melissa Bryant         38 Kensington MD    1:07:14 1:00:44  9:47
  882 120/212    571 Shelly Simon           40 Washington DC    1:04:48 1:00:44  9:47
  883  39/89    1328 Sharon Beall           51 Germantown MD    1:07:30 1:00:44  9:47
  884   3/12    1314 Nancy Malan            63 Washington DC    1:02:03 1:00:45  9:47
  885 166/309   3550 Karla Mitchell         29 Washington DC    1:10:28 1:00:45  9:47
  886           4225 Nina Alden                Unknown XX       1:09:31 1:00:48  9:47
  887 114/215   1732 Lisa Silverman         39 Bethesda MD      1:08:47 1:00:49  9:48
  888 115/215   1856 Lisa Cohn              38 Gaithersburg MD  1:06:39 1:00:51  9:48
  889 116/215    775 Glenda Garcia          35 Bethesda MD      1:04:52 1:00:51  9:48
  890 167/309   1655 Samantha Trepel        28 Brooklyn NY      1:08:10 1:00:52  9:48
  891 121/212   2812 Julee Lipsman          41 Germantown MD    1:07:42 1:00:53  9:48
  892 123/238   1213 Mary Thornton          30 Hyattsville MD   1:04:54 1:00:53  9:48
  893 124/238   1804 Jennifer Armstrong     30 Germantown MD    1:07:42 1:00:53  9:48
  894 115/204   4516 Abigail Dugan          21 Silver Spring MD 1:08:55 1:00:55  9:49
  895 116/204   4088 Erika Herman           21 Bethesda MD      1:08:55 1:00:55  9:49
  896 125/238   2857 Sandra Cepeda          34 North Bethesda M 1:02:08 1:00:56  9:49
  897  40/89     221 Susan Rogers           52 Louisville KY    1:07:47 1:00:56  9:49
  898 122/212    269 Monique Buckles        43 Bethesda MD      1:07:03 1:00:56  9:49
  899  13/34    1459 Barbara Bensur         58 Germantown MD    1:09:49 1:00:57  9:49
  900  75/165   2772 Alicia Gilbert         46 Gaithersburg MD  1:06:59 1:00:58  9:49
  901 117/204   1979 Alexandra Nicoletti    20 Bethesda MD      1:08:22 1:00:59  9:49
  902 118/204    389 Kaitlin O'Donnell      20 Gaithersburg MD  1:09:11 1:00:59  9:49
  903 168/309    388 Megan McGolrick        27 Gaithersburg MD  1:09:10 1:00:59  9:49
  904 119/204    414 Elise Ehrenreich       23 Philadelphia PA  1:08:26 1:00:59  9:49
  905 169/309   2776 Ramona Zeender         25 Bethesda MD      1:07:20 1:01:00  9:49
  906 126/238   2311 Kasia O'Connell        30 Washington DC    1:10:12 1:01:00  9:49
  907 114/194    472 Meghan Quinn           17 Bethesda MD      1:07:51 1:01:02  9:50
  908 117/215   2717 Jesslene Reing         36 Boyds MD         1:08:32 1:01:03  9:50
  909 127/238    421 Nancy Blanco           33 Frederick MD     1:08:32 1:01:04  9:50
  910  76/165   1401 Maria Morasso          47 Bethesda MD      1:08:25 1:01:06  9:50
  911 120/204    552 Jacqueline Hayes       24 Great Falls VA   1:08:20 1:01:07  9:51
  912           1309 Rebecca Rosenbery         Kensington MD    1:05:14 1:01:08  9:51
  913 121/204   2706 Elizabeth Mongeon      20 Beltsville MD    1:07:24 1:01:08  9:51
  914  41/89     103 Cindy Sherman          51 Washington DC    1:08:26 1:01:08  9:51
  915   4/12    4187 Margaret Crockett      64 Bethesda MD      1:05:14 1:01:11  9:51
  916 170/309   1810 Lauren Ray             27 Washington DC    1:08:47 1:01:12  9:51
  917 128/238   3057 Cheri Benedict         31 Bethesda MD      1:02:47 1:01:12  9:51
  918 171/309   1516 Lindsey Watson         27 Miami Beach FL   1:05:21 1:01:13  9:52
  919 122/204   4435 Christine Miller       24 Arlington VA     1:07:34 1:01:14  9:52
  920 115/194   4108 Gabriela Keane         14 Potomac MD       1:07:15 1:01:14  9:52
  921 172/309   2301 Lauren Lesch           25 Potomac MD       1:10:08 1:01:15  9:52
  922 129/238   2891 Amanda McMurphy        31 Washington DC    1:10:08 1:01:15  9:52
  923  77/165   2868 Susan Silverstein      47 Bethesda MD      1:09:32 1:01:16  9:52
  924 123/212   4244 Michelle Gutierrez     41 Potomac MD       1:09:55 1:01:16  9:52
  925 116/194    448 Samantha Kaplan        15 Bethesda MD      1:05:20 1:01:17  9:52
  926 130/238   1828 Kara Lovett            31 Silver Spring MD 1:07:42 1:01:17  9:52
  927  78/165   1808 Patricia Culpepper     48 Ashton MD        1:02:55 1:01:17  9:52
  928 117/194    708 Lauren Godles          19 Bethesda MD      1:09:44 1:01:17  9:52
  929 118/215    126 Trina Kerns            36 Silver Spring MD 1:04:43 1:01:17  9:52
  930  79/165   1235 Michelle Mahn          47 Boyds MD         1:08:47 1:01:17  9:52
  931 131/238   1039 Laura Giberman         32 Bethesda MD      1:10:04 1:01:21  9:53
  932 124/212   4102 Denise Hitt            40 Kensington MD    1:08:10 1:01:22  9:53
  933 173/309   1727 Gina Fenice            25 Washington DC    1:09:21 1:01:22  9:53
  934 119/215   3149 Renata Zeleznik        37 Bethesda MD      1:09:50 1:01:23  9:53
  935  80/165   1776 Sarah Kiernan          46 Kensington MD    1:08:11 1:01:23  9:53
  936 174/309   2291 Kimberly Kulik         28 New York NY      1:08:27 1:01:24  9:53
  937 175/309    730 Emily Sanders          26 Bethesda MD      1:07:53 1:01:24  9:53
  938 120/215   2794 Stefanie Wright        36 New York NY      1:05:37 1:01:25  9:53
  939  14/34    2839 Ann Rosenthal          59 Bethesda MD      1:09:07 1:01:25  9:53
  940  81/165   3051 Amy Tillotson          47 Chevy Chase MD   1:09:08 1:01:27  9:54
  941  82/165   3290 Aileen Cohen           47 Bethesda MD      1:08:46 1:01:27  9:54
  942 132/238   1137 Shane Selzer           31 Chevy Chase MD   1:09:10 1:01:28  9:54
  943 118/194   3054 Elizabeth Allen        19 Bethesda MD      1:08:51 1:01:28  9:54
  944 121/215    731 Emma Burton            36 Bethesda MD      1:10:33 1:01:28  9:54
  945 176/309   1101 Susan Dent             28 Bethesda MD      1:08:16 1:01:29  9:54
  946 122/215   1421 Abby Pensky            37 Kensington MD    1:05:11 1:01:30  9:54
  947  15/34    4087 Patti Lewis            55 Chevy Chase MD   1:07:33 1:01:30  9:54
  948 119/194   2136 Antonia Curtin         17 Bethesda MD      1:08:40 1:01:31  9:54
  949 123/215   1601 Donna Gievers-Zuniga   36 Sandy Spring MD  1:05:23 1:01:31  9:54
  950  83/165   2169 Michelle Shekarchi     48 Bethesda MD      1:07:34 1:01:31  9:54
  951 125/212   1895 Lori Marks             42 Bethesda MD      1:07:34 1:01:31  9:54
  952 124/215   3005 Laura Evans Manatos    39 Bethesda MD      1:11:39 1:01:32  9:55
  953 125/215   3145 Grace Miller           39 Maplewood NJ     1:08:48 1:01:33  9:55
  954 177/309   1060 Erin Thiel             27 Silver Spring MD 1:11:32 1:01:33  9:55
  955 126/215   1995 Andrea Beane           36 Rockville MD     1:08:48 1:01:33  9:55
  956 127/215   2499 Amy Kealiher           36 Silver Spring MD 1:05:39 1:01:33  9:55
  957 178/309    577 Katie Miller           25 Bethesda MD      1:07:56 1:01:34  9:55
  958 120/194   4586 Elisa Magalhaes        16 Bethesda MD      1:08:44 1:01:35  9:55
  959 121/194   3440 Rachel Osnos           16 Bethesda MD      1:08:43 1:01:35  9:55
  960 123/204   2112 Jacqueline Lodge       22 Bethesda MD      1:10:19 1:01:36  9:55
  961 179/309   1301 Nancy Kachadorian      27 Olney MD         1:10:49 1:01:37  9:55
  962 126/212    208 Melissa O'Brien        41 Gaithersburg MD  1:09:46 1:01:40  9:56
  963  84/165   3534 Virginia Murphy        49 Potomac MD       1:08:08 1:01:41  9:56
  964 127/212   3517 Bridgit Fried          44 Potomac MD       1:08:08 1:01:41  9:56
  965 133/238   2295 Nicole Vavrecka        32 Washington DC    1:09:07 1:01:41  9:56
  966 128/212   2585 Kris Hannah            40 Bethesda MD      1:09:00 1:01:42  9:56
  967 124/204    123 Jennifer Vettori       24 Rockville MD     1:03:21 1:01:45  9:57
  968 180/309    350 Rebecca Tollefson      25 Silver Spring MD 1:10:46 1:01:47  9:57
  969 134/238    237 Brenda Chen            34 Rockville MD     1:08:57 1:01:47  9:57
  970 181/309   2030 Kristi Martinsen       29 Silver Spring MD 1:09:38 1:01:47  9:57
  971 135/238   1497 Sarah Perry            31 Washington DC    1:09:58 1:01:48  9:57
  972 122/194   3052 Julia Jurgovan         19 Chevy Chase MD   1:09:29 1:01:48  9:57
  973 128/215    256 Julie Bourbon          35 Washington DC    1:08:18 1:01:48  9:57
  974  85/165   1155 Mary O'Connell         48 Rockville MD     1:08:18 1:01:48  9:57
  975 123/194   3277 Julia Sallo            19 Bethesda MD      1:09:10 1:01:49  9:57
  976 182/309   2217 Jennifer White         26 Richmond VA      1:05:54 1:01:49  9:57
  977  86/165   4110 Suzanne Picard         49 Kensington MD    1:08:55 1:01:50  9:57
  978 129/212   1780 Kirstin Parsons        42 Bethesda MD      1:09:35 1:01:50  9:57
  979 130/212   4307 Laura Weiss            43 Washington DC    1:05:41 1:01:50  9:57
  980 131/212   1544 Rachel Greenfeld       41 Atlanta GA       1:09:35 1:01:50  9:57
  981 129/215   1769 Lisa Konstandt         39 Davidson NC      1:09:35 1:01:50  9:57
  982 183/309   2882 Kiki Spinner           25 Bethesda MD      1:08:12 1:01:51  9:58
  983 184/309   3104 Amy Jauss              25 Philadelphia PA  1:09:31 1:01:51  9:58
  984 125/204   2350 Laura Magill           23 Potomac MD       1:08:10 1:01:52  9:58
  985 185/309   1278 Katie Schlieper        27 Washington DC    1:10:02 1:01:52  9:58
  986 126/204   1878 Farnoosh Farahi        20 Riverdale MD     1:08:10 1:01:54  9:58
  987  87/165   1513 Jeanette Naiman        45 Silver Spring MD 1:08:02 1:01:54  9:58
  988   2/4     1187 Margaret Ruane         11 North Bethesda M 1:08:46 1:01:55  9:58
  989  88/165    602 Jill Coleman           45 Gaithersburg MD  1:05:32 1:01:56  9:58
  990 136/238    318 Madeleine Santiago     34 Silver Spring MD 1:09:48 1:01:56  9:58
  991  42/89    1947 Gale Greenbaum         53 Potomac MD       1:10:12 1:01:57  9:59
  992 132/212   4128 Wendy Krakower         44 Potomac MD       1:08:53 1:01:57  9:59
  993  89/165   2798 Ann Gerber             46 Bethesda MD      1:05:23 1:01:59  9:59
  994 127/204   2018 Linette Boisvert       22 Laytonsville MD  1:05:24 1:02:00  9:59
  995 186/309   2538 Alissa Lewandowski     28 Bethesda MD      1:09:48 1:02:00  9:59
  996  16/34    2424 Beth Greenbaum         57 Potomac MD       1:03:28 1:02:01  9:59
  997 128/204   1249 Elizabeth Stortstrom   21 Germantown MD    1:09:26 1:02:02  9:59
  998 187/309    765 Natalie Barakat        29 New York NY      1:09:18 1:02:04 10:00
  999  17/34     353 Stella Graves          56 Bethesda MD      1:05:58 1:02:06 10:00
 1000  43/89    2991 Robin Orndorff         50 Gaithersburg MD  1:10:13 1:02:06 10:00
 1001 130/215   3173 Nikole Flax            35 Chevy Chase MD   1:10:09 1:02:08 10:00
 1002 188/309    804 Tiffany Engeel         29 Alexandria VA    1:08:21 1:02:08 10:00
 1003  44/89    4181 Lisa Raab              51 Bethesda MD      1:03:41 1:02:08 10:00
 1004 129/204   2786 Maria McElwain         21 Washington DC    1:08:34 1:02:08 10:00
 1005 137/238    127 Stacy Wallick          31 Washington DC    1:10:50 1:02:09 10:01
 1006 133/212   1899 Allison Hodges         43 Arlington VA     1:10:50 1:02:09 10:01
 1007 131/215   2296 Jennifer Zuckman       38 Rockville MD     1:11:19 1:02:10 10:01
 1008 138/238   1348 Erika Murray           30 Silver Spring MD 1:11:12 1:02:10 10:01
 1009 134/212    119 Magda Salman           44 Bethesda MD      1:10:31 1:02:13 10:01
 1010 132/215   3540 Monica Bazan           37 Dallas TX        1:10:56 1:02:13 10:01
 1011   5/12    4091 Suzanne Charle         60 New York NY      1:08:26 1:02:14 10:01
 1012  90/165    768 Alison Bouquet         45 Bethesda MD      1:08:52 1:02:15 10:01
 1013 133/215   2674 Kentrina Anderson      39 Landover Hills M 1:11:45 1:02:15 10:02
 1014 135/212   1560 Lynnly Tydings         40 Takoma Park MD   1:09:43 1:02:17 10:02
 1015 130/204   1212 Tierney Rogers         23 New York NY      1:08:39 1:02:17 10:02
 1016 131/204   4377 Katelan Doyle          23 Silver Spring MD 1:08:39 1:02:17 10:02
 1017 139/238   1963 Amy Krupka             34 Olney MD         1:09:45 1:02:19 10:02
 1018 140/238   1182 Tina Seeley            34 Washington DC    1:10:21 1:02:19 10:02
 1019 124/194   1399 Jesse Simon            15 Bethesda MD      1:08:59 1:02:20 10:02
 1020 125/194   2986 Hannah Suttora         16 Potomac MD       1:09:19 1:02:21 10:02
 1021  45/89    2248 Alison Whyte           50 Bethesda MD      1:12:15 1:02:23 10:03
 1022 132/204   3301 Frosty Baylor          20 Charlottesville  1:09:08 1:02:26 10:03
 1023 189/309    677 Courtney Mecham        26 Arlington VA     1:09:32 1:02:26 10:03
 1024 136/212   2802 Liesl Curtis           42 McLean VA        1:09:23 1:02:27 10:03
 1025 141/238   3067 Alice Wachira          32 Gaithersburg MD  1:06:13 1:02:27 10:03
 1026 137/212   1006 Monica Brown           40 Olney MD         1:09:28 1:02:27 10:03
 1027 134/215    295 Natascha Castro        35 Kensington MD    1:10:38 1:02:28 10:04
 1028  91/165    984 Susan Singley          47 Rockville MD     1:11:21 1:02:28 10:04
 1029  46/89    2418 Cheryl Griffin         52 Germantown MD    1:11:42 1:02:28 10:04
 1030  47/89    1717 Sandy Linder           50 Rockville MD     1:11:21 1:02:28 10:04
 1031 135/215   2544 Wendy Myers            36 Potomac MD       1:09:02 1:02:28 10:04
 1032 133/204   2703 Mills Wallace          24 Arlington VA     1:10:57 1:02:29 10:04
 1033 190/309   2283 Elana Graber           25 Rockville MD     1:09:33 1:02:30 10:04
 1034 191/309   3597 Emma Lincoln           29 Urbana IL        1:10:57 1:02:31 10:04
 1035  48/89    1498 Karon Green            51 Potomac MD       1:10:45 1:02:32 10:04
 1036  92/165   4384 Linda Fowler           46 Bethesda MD      1:09:37 1:02:32 10:04
 1037  49/89    1706 Maureen George         53 Bethesda MD      1:09:38 1:02:33 10:04
 1038 192/309   3485 Michelle Green         26 New York NY      1:06:48 1:02:34 10:05
 1039 142/238   1521 Maria Willging         31 Chicago IL       1:11:50 1:02:34 10:05
 1040 193/309   3420 Patricia Diaz          27 Silver Spring MD 1:11:04 1:02:35 10:05
 1041 138/212    828 Kristi Rood            40 Bethesda MD      1:11:07 1:02:36 10:05
 1042 139/212   1271 Terri Robertson        42 Rockville MD     1:10:22 1:02:36 10:05
 1043 136/215    157 Carolyn Underwood      39 Fruitland MD     1:10:23 1:02:36 10:05
 1044 143/238   1268 Esther Adams           30 Washington DC    1:09:50 1:02:38 10:05
 1045 126/194   3228 Karissa Rafferty       19 Centreville VA   1:06:58 1:02:42 10:06
 1046 140/212   4206 Drisin Ellys           42 Chevy Chase MD   1:09:15 1:02:43 10:06
 1047 127/194   1149 Kathleen Salvail       16 Olney MD         1:12:26 1:02:43 10:06
 1048 141/212   4363 Shannon Hopkins        43 Mt Airy MD       1:08:46 1:02:44 10:06
 1049 194/309   1650 Kristin Stroud         27 Chicago IL       1:09:45 1:02:44 10:06
 1050 137/215    403 Krista Ellis           39 Bethesda MD      1:09:47 1:02:44 10:06
 1051  93/165   1364 Jessica Bernsein       49 Bethesda MD      1:10:26 1:02:45 10:06
 1052  50/89    2874 Helene Goldstein       53 Bethesda MD      1:08:55 1:02:46 10:07
 1053 144/238   1441 Christine Rath         32 Silver Spring MD 1:10:06 1:02:49 10:07
 1054           4147 Maggie Murphy             Unknown XX       1:11:07 1:02:49 10:07
 1055 195/309    266 Lauren Myers           25 Rockville MD     1:08:56 1:02:52 10:07
 1056 128/194   4467 Beth Glowacki          16 Chevy Chase MD   1:06:45 1:02:52 10:07
 1057 196/309   4578 Brooke Jansill         27 McLean VA        1:06:45 1:02:53 10:08
 1058  94/165   4291 Julianne Clarke        49 Wheaton MD       1:11:45 1:02:54 10:08
 1059 197/309   3423 Becky D'Amour          26 Silverspring MD  1:12:15 1:02:54 10:08
 1060 129/194   2632 Robin Wilke            18 Bethesda MD      1:06:06 1:02:55 10:08
 1061 145/238    214 Amelia Cullinan        34 Boston MA        1:10:46 1:02:55 10:08
 1062 198/309   3533 Kathleen Cullinan      28 Alexandria VA    1:10:46 1:02:55 10:08
 1063 130/194   3368 Marissa Dickson        18 Harvard MA       1:11:03 1:02:58 10:08
 1064  51/89    1303 Susan Sell             51 Takoma Park MD   1:09:14 1:02:59 10:09
 1065 134/204   3006 Allison Silver         21 Springfield VA   1:07:15 1:03:00 10:09
 1066  95/165    924 Jodie Friedman         48 Olney MD         1:06:03 1:03:00 10:09
 1067 138/215   2074 Diana Hashem           36 Potomac MD       1:10:09 1:03:01 10:09
 1068 199/309   1143 Marisa Baumgartner     28 Brooklyn NY      1:09:58 1:03:03 10:09
 1069 200/309     21 Jaclyn Washecka        25 New York NY      1:09:57 1:03:03 10:09
 1070  96/165   2406 Susan Gerson           46 Kensington MD    1:09:52 1:03:05 10:09
 1071 142/212    509 Elizabeth Hillman      41 Washington DC    1:06:40 1:03:06 10:10
 1072 146/238   2453 Kristine Pace          33 McLean VA        1:07:18 1:03:06 10:10
 1073  97/165   2626 Nancy Robinson         49 Virgina Beach VA 1:09:33 1:03:09 10:10
 1074  52/89    2201 Donna Brennan          54 Silver Spring MD 1:06:49 1:03:09 10:10
 1075 139/215   2245 Anne Detrick           38 Washington DC    1:12:01 1:03:10 10:10
 1076 147/238    613 Jocelyn Richards       30 Hyattsville MD   1:07:13 1:03:10 10:10
 1077 143/212    198 Mary Piper             43 Montgomery Vill  1:13:08 1:03:11 10:10
 1078 148/238    612 Joanna Bader           34 Hyattsville MD   1:07:14 1:03:11 10:11
 1079 135/204   1078 Karley Schulte         23 Chevy Chase MD   1:07:31 1:03:12 10:11
 1080  53/89    2631 Nancy Wilke            53 Bethesda MD      1:11:32 1:03:14 10:11
 1081 201/309   2329 Heidi Keller           28 Washington DC    1:09:47 1:03:15 10:11
 1082 202/309   2336 Rebecca Farr           27 Washington DC    1:09:47 1:03:15 10:11
 1083 203/309    541 Alexa Horvath          26 Bethesda MD      1:09:51 1:03:15 10:11
 1084  98/165    415 Patti Petesch          48 Rockville MD     1:10:08 1:03:18 10:12
 1085 149/238   3304 Mary Beth Roca         33 Bethesda MD      1:10:40 1:03:18 10:12
 1086 204/309   1072 Ashley Fagel           29 Bethesda MD      1:10:40 1:03:18 10:12
 1087 150/238   1906 Lesley Yeung           30 Washington DC    1:11:51 1:03:18 10:12
 1088 140/215   2073 Beth Gregory           39 Silver Spring MD 1:11:10 1:03:18 10:12
 1089  99/165   3524 Laila Boufraine        45 Bethesda MD      1:11:25 1:03:19 10:12
 1090 141/215   2683 Michelle Collins       39 Frederick MD     1:13:46 1:03:19 10:12
 1091 144/212   3150 Carol Levitt           41 Potomac MD       1:09:33 1:03:22 10:12
 1092 100/165   1922 Helene Nankin          45 Bethesda MD      1:11:36 1:03:23 10:12
 1093 101/165   2671 Anne West              47 Bethesda MD      1:11:35 1:03:23 10:12
 1094 142/215   2555 Julie Friedman         35 N. Potomac MD    1:11:32 1:03:24 10:13
 1095 143/215    138 Stephanie Warlick      37 Chevy Chase MD   1:11:04 1:03:27 10:13
 1096 145/212   2595 Jada Hayes             41 Bethesda MD      1:11:20 1:03:28 10:13
 1097 136/204     27 Emily Winston          24 Chicago IL       1:11:17 1:03:29 10:13
 1098 131/194   2738 Taylor Bryant          16 Kensington MD    1:10:00 1:03:30 10:14
 1099 151/238   2093 Margaret Paton         30 Silver Spring MD 1:10:42 1:03:31 10:14
 1100 152/238    218 Sasha Nunes            30 Washington DC    1:12:17 1:03:32 10:14
 1101  54/89     620 Margaret Murphy        54 Rockville MD     1:11:52 1:03:34 10:14
 1102 153/238   1619 Laura Ellestad         33 Bowie MD         1:12:14 1:03:34 10:14
 1103 146/212    143 Rhonda Trad            42 Bethesda MD      1:11:54 1:03:36 10:14
 1104 144/215   1204 Carolyn Ratner         36 Washington DC    1:03:36 1:03:36 10:14
 1105 205/309   3357 Camille Young          28 Rockville MD     1:11:47 1:03:36 10:14
 1106 147/212   4183 Kim McCarthy           40 Bethesda MD      1:07:44 1:03:40 10:15
 1107 154/238    652 Allison Lefrak         34 Bethesda MD      1:07:30 1:03:40 10:15
 1108 206/309   2256 Debra Lowry            28 Kensington MD    1:11:16 1:03:40 10:15
 1109 155/238   2302 Rikkina Pulliam        33 Olney MD         1:11:51 1:03:46 10:16
 1110 156/238   2685 Kylie Mikuta           34 Ashburn VA       1:12:47 1:03:47 10:16
 1111 102/165   1011 Jill Andrews           47 Olney MD         1:10:21 1:03:48 10:16
 1112 157/238   2966 Katherine Debrandt     32 Washington DC    1:10:24 1:03:49 10:17
 1113 145/215   3244 Padma Laskshmi         38 Bethesda MD      1:12:48 1:03:49 10:17
 1114 146/215    717 Lisa Krim              38 Bethesda MD      1:10:25 1:03:50 10:17
 1115 147/215   3127 Meg Fletcher           35 Bethesda MD      1:10:24 1:03:50 10:17
 1116  55/89    2646 Miriam Kranton         51 Yarmouth ME      1:10:51 1:03:50 10:17
 1117 148/215   1120 Michelle Raynes        35 Rockville MD     1:11:40 1:03:52 10:17
 1118 137/204   2207 Claudia Choi           21 Elmhurst NY      1:10:02 1:03:52 10:17
 1119 207/309   2202 Stephanie Choi         26 Elmhurst NY      1:10:02 1:03:53 10:17
 1120 138/204   3315 Sandy Nguyen           24 Gaithersburg MD  1:13:43 1:03:53 10:17
 1121 149/215     41 Teri Collins           38 Navan CO         1:12:28 1:03:53 10:17
 1122 132/194   1578 Georgia Corran         16 Silver Spring MD 1:11:39 1:03:53 10:17
 1123 103/165   4135 Deb Schaumberg         45 Potomac MD       1:10:38 1:03:55 10:18
 1124 104/165   1682 Christina Warnick      45 Silver Spring MD 1:11:13 1:03:56 10:18
 1125 133/194   4379 Molly Jacobs           18 Potomac MD       1:10:56 1:03:57 10:18
 1126 150/215   2224 Martina Bosi           38 Bethesda MD      1:12:59 1:03:58 10:18
 1127 134/194   4378 Melissa Keeney         18 Potomac MD       1:10:56 1:03:58 10:18
 1128 151/215   1743 Karine Vincent         37 Bethesda MD      1:13:02 1:04:01 10:19
 1129 148/212   4523 Diane Tanman           40 Chevy Chase MD   1:11:27 1:04:02 10:19
 1130 139/204    588 Jennifer Holliday      22 Gaithersburg MD  1:11:00 1:04:02 10:19
 1131 158/238   1889 Sara Andrews           30 Arlington VA     1:12:59 1:04:04 10:19
 1132 159/238    954 Erica Laden            31 New York NY      1:11:24 1:04:04 10:19
 1133 105/165    268 Lucy Lamar             48 Bethesda MD      1:12:17 1:04:04 10:19
 1134 208/309   2698 Heavenly Hicks         27 Fort Washington  1:10:32 1:04:05 10:19
 1135 140/204    245 Kate Shoemaker         24 Bethesda MD      1:12:18 1:04:05 10:19
 1136 149/212   4531 Julia Tonkovich        40 Bethesda MD      1:10:42 1:04:06 10:19
 1137 150/212   3046 Nicole Sheehy          40 Bethesda MD      1:08:05 1:04:07 10:19
 1138 135/194   3489 Faiza El-Hibri         18 Potomac MD       1:10:32 1:04:07 10:20
 1139 141/204    107 Laura Shuman           21 Gaithersburg MD  1:11:06 1:04:08 10:20
 1140 160/238   2504 Rebecca Kelly          30 Silver Spring MD 1:12:57 1:04:09 10:20
 1141 136/194   3676 Kathryn Berlin         19 Chevy Chase MD   1:11:49 1:04:09 10:20
 1142 152/215   3138 Katina Vassos          39 Washington DC    1:14:19 1:04:10 10:20
 1143 209/309   1499 Catherine Solomon      26 Bethesda MD      1:12:54 1:04:11 10:20
 1144 210/309   4520 Laura Hansen           29 Pittsburgh PA    1:13:23 1:04:11 10:20
 1145 142/204    670 Gabriele Geier         23 Bethesda MD      1:13:15 1:04:13 10:20
 1146 143/204   2822 Stephanie Taylor       23 Bethesda MD      1:13:16 1:04:14 10:21
 1147 137/194    672 Julia Geier            15 Bethesda MD      1:13:16 1:04:15 10:21
 1148 161/238   3264 Jana Bowcut            31 Bethesda MD      1:11:11 1:04:18 10:21
 1149  56/89    2493 Nancy-Ann Deparle      51 Chevy Chase MD   1:12:12 1:04:19 10:21
 1150 211/309   4058 Heather McMahon        25 Bethesda MD      1:12:28 1:04:19 10:21
 1151 162/238   3531 Erika Potter           30 San Francisco CA 1:14:04 1:04:19 10:21
 1152 212/309   2087 Anna Kavaliunas        26 New York NY      1:13:22 1:04:20 10:22
 1153 144/204   1294 Jennifer Brugger       21 Clifton VA       1:08:16 1:04:20 10:22
 1154 138/194    321 Sarah Zeichner         14 Bethesda MD      1:13:25 1:04:25 10:22
 1155 163/238   2345 Karin Fleschner        33 Silver Spring MD 1:15:07 1:04:25 10:22
 1156 213/309   3258 Katharine Corey        26 Washington DC    1:07:47 1:04:26 10:23
 1157 153/215   1722 Lori Murphy            36 Mont. Village MD 1:15:07 1:04:26 10:23
 1158 154/215   3682 Michelle Rodgers       35 Washington DC    1:11:35 1:04:26 10:23
 1159 145/204   3231 Eleanor Dayhoff-Brann  23 Baltimore MD     1:11:09 1:04:27 10:23
 1160 139/194   3681 Lara White             14 Potomac MD       1:11:39 1:04:27 10:23
 1161 140/194   2389 Ronnie Foreman         16 Bethesda MD      1:12:09 1:04:29 10:23
 1162 164/238    824 Erika Kahan            34 Chicago IL       1:12:47 1:04:29 10:23
 1163 146/204    204 Jennifer Romanek       21 Arlington VA     1:14:02 1:04:33 10:24
 1164 155/215   2664 Carolyn Fisher         38 Montgomery Vill  1:12:43 1:04:33 10:24
 1165 141/194    487 Kathryn O'Boyle        16 Kensington MD    1:12:59 1:04:34 10:24
 1166 142/194   2110 Fiona Harnischfeger    12 Bethesda MD      1:08:42 1:04:35 10:24
 1167 106/165   2039 Emma Wells             47 Silver Spring MD 1:08:26 1:04:35 10:24
 1168 151/212   4310 Elizabeth White        41 Potomac MD       1:11:34 1:04:35 10:24
 1169 214/309    788 Denise Karahasan-Myer  29 Philadelphia PA  1:13:55 1:04:35 10:24
 1170 165/238    785 Marguerite Flynn       33 Rockville MD     1:13:56 1:04:36 10:24
 1171  57/89    1701 Elizabeth Manne        52 Columbia MD      1:11:34 1:04:36 10:24
 1172 215/309    162 McNevin Morris         27 Washington DC    1:13:58 1:04:37 10:24
 1173 166/238    252 Kristin Fuller         30 Alexandria VA    1:11:12 1:04:38 10:24
 1174 107/165   1576 Ann Corran             47 Silver Spring MD 1:12:23 1:04:38 10:24
 1175 108/165   3208 Chris Reed             48 Chevy Chase MD   1:11:21 1:04:39 10:25
 1176 109/165   1974 Joy Laurienzo          49 Gaithersburg MD  1:13:51 1:04:40 10:25
 1177 216/309   1304 Laura Saint-Jean       25 Cabin John MD    1:15:13 1:04:40 10:25
 1178 217/309    586 Megan Farris           28 Alexandria VA    1:11:28 1:04:41 10:25
 1179 218/309   3261 Jacqueline Auna        28 Silver Spring MD 1:15:14 1:04:41 10:25
 1180 152/212   4528 Pam Crystal            40 Bethesda MD      1:12:40 1:04:42 10:25
 1181 219/309   4510 Alma Andrade           25 Arlington VA     1:14:41 1:04:43 10:25
 1182 156/215    378 Danielle Lachter       35 Bethesda MD      1:10:55 1:04:44 10:25
 1183 167/238    377 Diana Lancaster        33 Centreville VA   1:10:55 1:04:44 10:25
 1184 110/165   1522 Tanya Landry           48 Potomac MD       1:10:49 1:04:47 10:26
 1185 111/165   1209 Velma Briscoe          47 Gaithersburg MD  1:11:20 1:04:47 10:26
 1186 168/238   2907 Ina Malmotra           32 Bethesda MD      1:11:18 1:04:50 10:26
 1187 169/238   2048 Nicole Seibel          34 Bethesda MD      1:13:18 1:04:50 10:26
 1188 220/309   2337 Rebecca Lipscomb       27 Bethesda MD      1:12:24 1:04:50 10:26
 1189 170/238    361 Anna Irwin             30 Washington DC    1:13:18 1:04:51 10:27
 1190 112/165    292 Jessica Loucheim       45 Washington DC    1:11:34 1:04:52 10:27
 1191 171/238    106 Suzanne Quintero       32 Burtonsville MD  1:12:27 1:04:52 10:27
 1192 113/165     48 Laurie Bair            46 New Rochelle NY  1:11:35 1:04:53 10:27
 1193 153/212   1517 Elizabeth Sherison     41 Bethesda MD      1:12:42 1:04:53 10:27
 1194 157/215   1733 Melinda Miller         39 Chevy Chase MD   1:12:42 1:04:53 10:27
 1195 143/194   4247 Kendall Smith          18 Rockville MD     1:14:21 1:04:54 10:27
 1196 172/238    960 Jodi Robbins           34 New York City NY 1:11:27 1:04:54 10:27
 1197 154/212   4199 Petra Prothmann        42 Bethesda MD      1:14:01 1:04:55 10:27
 1198 144/194   3221 Megan Dwyer            16 Bethesda MD      1:08:51 1:05:02 10:28
 1199 173/238   1612 Jessica Biggs          30 Falls Church VA  1:14:25 1:05:02 10:28
 1200 158/215   4190 Cindy Rose             39 San Mateo CA     1:14:18 1:05:03 10:28
 1201 159/215   1797 Jennifer Biggs         35 McLean VA        1:14:25 1:05:03 10:28
 1202 155/212   3366 Penney Azcarate        42 Falls Church VA  1:11:47 1:05:03 10:29
 1203 114/165   2416 Patty Craver           46 Bethesda MD      1:08:51 1:05:03 10:29
 1204 115/165   1690 Elizabeth O'Connell    46 Silver Spring MD 1:13:28 1:05:06 10:29
 1205 174/238     30 Amy Trenkle            33 Washington DC    1:13:41 1:05:08 10:29
 1206 160/215   3568 Corie Dorrian          35 Fredericksburg V 1:12:53 1:05:09 10:29
 1207 147/204   1579 Kerry Philbin          21 Herndon VA       1:12:53 1:05:09 10:29
 1208 175/238   1527 Katherine Kirvan       30 New York NY      1:12:57 1:05:09 10:29
 1209 116/165   2079 Sara Barakat           49 Potomac MD       1:11:59 1:05:09 10:30
 1210 161/215    261 Akiko Taketani         36 Rockville MD     1:12:58 1:05:10 10:30
 1211 221/309   1493 Julie Kraut            26 Potomac MD       1:13:42 1:05:11 10:30
 1212 148/204   2911 Ellen Wallendjack      23 Kensington MD    1:12:51 1:05:13 10:30
 1213 156/212   3099 Catherine Lerche       44 Olney MD         1:11:57 1:05:14 10:30
 1214 145/194    426 Ashley Ferguson        17 Bowie MD         1:11:53 1:05:14 10:30
 1215 157/212    736 Ele Ibarra-Pratt       43 Kensington MD    1:14:17 1:05:15 10:30
 1216 176/238     81 Anne Mandeville        33 North Bethesda M 1:12:37 1:05:16 10:31
 1217 158/212   1702 Carolyn Montrose       44 Bethesda MD      1:13:05 1:05:16 10:31
 1218 222/309    664 Megan Corey            25 Bethesda MD      1:11:52 1:05:19 10:31
 1219 177/238   1957 Randi Wallach          30 Olney MD         1:11:39 1:05:20 10:31
 1220 223/309   3385 Emily Durkin           26 Germantown MD    1:13:11 1:05:20 10:31
 1221 146/194   1244 Kirsten Ralph          18 Potomac MD       1:11:36 1:05:20 10:31
 1222 147/194   4473 Alicia Allen           19 McLean VA        1:14:10 1:05:21 10:31
 1223 148/194    568 Nicole Melnick         19 Bethesda MD      1:11:36 1:05:21 10:31
 1224 224/309   1873 Kinsey Miller          27 North Potomac MD 1:12:24 1:05:24 10:32
 1225 225/309    959 Emily Evans            29 Baltimore MD     1:13:32 1:05:24 10:32
 1226  18/34    1816 Paula Jenkins          56 Germantown MD    1:12:36 1:05:25 10:32
 1227 117/165   1570 Mona Yacoubian         45 Bethesda MD      1:13:49 1:05:27 10:32
 1228 149/194   3603 Chantu Chea            16 Bethesda MD      1:12:56 1:05:27 10:32
 1229 118/165   1614 Carolyn Lobuglio       47 Bethesda MD      1:13:49 1:05:28 10:32
 1230  58/89    4480 Colleen Oaksmith       50 Potomac MD       1:09:11 1:05:33 10:33
 1231 226/309   1925 Sarah Sheldon          27 Arlington VA     1:12:56 1:05:39 10:34
 1232 162/215    217 Jennie Cullen Meyer    38 Laytonsville MD  1:13:35 1:05:40 10:34
 1233 150/194    182 Grace Laboy            14 Bethesda MD      1:14:46 1:05:41 10:35
 1234 151/194   2258 Olivia Crist           14 Potomac MD       1:12:13 1:05:42 10:35
 1235 119/165   2257 Shelley Crist          47 Potomac MD       1:12:13 1:05:42 10:35
 1236 149/204   1952 Elizabeth Hopkins      23 Bethesda MD      1:12:26 1:05:42 10:35
 1237 227/309   2935 Katherine Hubbs        28 Washington DC    1:13:21 1:05:46 10:35
 1238 150/204   4420 Chynna Hawes           21 Chevy Chase MD   1:14:35 1:05:46 10:35
 1239 120/165   4232 Lisa Mitiguy           45 Washington DC    1:07:36 1:05:54 10:37
 1240 159/212   1277 Allison Feeney         44 Washington DC    1:14:29 1:05:54 10:37
 1241 160/212   4233 Abby Mitiguy           41 Washington DC    1:07:35 1:05:54 10:37
 1242 178/238   1425 Catherine Mulvihill    34 New York NY      1:13:10 1:05:56 10:37
 1243 163/215   2281 Donna Mulvihill Fehrm  37 Washington DC    1:13:10 1:05:56 10:37
 1244 228/309    770 Christina Moran        29 Rockville MD     1:13:10 1:05:56 10:37
 1245 164/215   3575 Debra Curtis           37 Laurel MD        1:14:16 1:05:57 10:37
 1246 151/204   1073 Dasha Vinogradsky      22 Washington DC    1:12:38 1:05:58 10:37
 1247 121/165   1027 Michele Givens         47 Bethesda MD      1:15:16 1:06:00 10:38
 1248 229/309   3580 Jessica Drews          27 Rockville MD     1:14:52 1:06:01 10:38
 1249 230/309   2219 Helen May-Simera       27 Bethesda MD      1:13:29 1:06:02 10:38
 1250 179/238   3561 Sheilla Saldana        31 Washigton Dc DC  1:13:01 1:06:03 10:38
 1251 180/238   2114 Kimberly Holston       30 Bethesda MD      1:15:01 1:06:07 10:39
 1252 231/309   1928 Arlyn Stokes           25 Washington DC    1:12:52 1:06:08 10:39
 1253 181/238   2141 Van Hang               30 Silver Spring MD 1:09:47 1:06:10 10:39
 1254  59/89    2970 Susan Kendzie          52 Kensington MD    1:14:25 1:06:11 10:40
 1255 122/165   1936 Elissa Oshinsky        49 Bethesda MD      1:12:25 1:06:12 10:40
 1256 232/309    648 Lorraine Sensenig      27 Ann Arbor MI     1:14:24 1:06:15 10:40
 1257 152/194     75 Farrah Tavakoli        17 Bethesda MD      1:14:49 1:06:15 10:40
 1258 153/194   3694 Vivi Sperling          17 Bethesda MD      1:14:49 1:06:15 10:40
 1259 123/165   1795 Susan Beach            47 Rockville MD     1:15:12 1:06:17 10:40
 1260 161/212   1866 Jennifer Millstone     41 Rockville MD     1:14:11 1:06:18 10:41
 1261 162/212   1422 Dana Nestel            42 Bethesda MD      1:14:11 1:06:18 10:41
 1262 124/165   4464 Leanne Gill            48 Bethesda MD      1:10:30 1:06:21 10:41
 1263  19/34    4453 Jennifer Schwartz      55 Bethesda MD      1:15:04 1:06:22 10:41
 1264 163/212   1012 Deb (duches Conner     44 Ashton MD        1:12:56 1:06:22 10:41
 1265   2/5     2139 Branda Murray          69 Chevy Chase MD   1:14:27 1:06:24 10:42
 1266 233/309   2121 Jean Zachariasiewi     29 Rockville MD     1:15:07 1:06:24 10:42
 1267 152/204   2655 Olivia Ungerer         24 Bethesda MD      1:09:35 1:06:24 10:42
 1268 153/204   2610 Elizabeth Schlossberg  23 Chevy Chase MD   1:13:26 1:06:26 10:42
 1269 182/238   2246 Kim Peduzzi            33 Arlington VA     1:12:55 1:06:28 10:42
 1270  20/34    2608 Barbara Zeughauser     56 Chevy Chase MD   1:13:28 1:06:28 10:42
 1271 183/238   3233 Susan Schneider        32 Arlington VA     1:13:23 1:06:28 10:42
 1272 234/309   1618 Betsy Harlow           25 Baltimore MD     1:12:51 1:06:28 10:42
 1273 235/309   2704 Devon Talbott          27 Alexandria VA    1:15:41 1:06:29 10:42
 1274 184/238   1096 Anna Hindle            31 Washington DC    1:15:27 1:06:31 10:43
 1275 236/309     68 Jessica Barakat        26 Kensington MD    1:13:44 1:06:31 10:43
 1276 164/212    849 Sonia Doamaral         43 Bethesda MD      1:15:01 1:06:31 10:43
 1277 185/238   1237 Katayoon Hodjati       30 Ellicott City MD 1:15:16 1:06:31 10:43
 1278 165/212    850 Ana Phelps             43 Bethesda MD      1:15:01 1:06:31 10:43
 1279           7587 Makhijane Shakuntala                       1:10:48 1:06:35 10:43
 1280 237/309    644 Rebecca Plante         28 Bethesda MD      1:14:14 1:06:36 10:43
 1281 154/204   3229 Valerie Obejero        21 Centreville VA   1:10:52 1:06:36 10:44
 1282 155/204   1602 Kathi Herrgot          23 Derwood MD       1:10:33 1:06:40 10:44
 1283 238/309    868 Gina Regotti           26 Washington DC    1:13:14 1:06:41 10:44
 1284 165/215   2305 Bridget Moore          35 Chevy Chase MD   1:15:25 1:06:44 10:45
 1285 239/309    772 Jamie Mitchell         26 Chevy Chase MD   1:16:28 1:06:45 10:45
 1286 240/309   4579 Anne Anderson          25 McLean VA        1:06:45 1:06:45 10:45
 1287 166/212   4191 Pamela Rose            40 Gaithersburg MD  1:16:02 1:06:46 10:45
 1288 125/165   3195 Cheryl Patterson       45 Germantown MD    1:16:37 1:06:46 10:45
 1289 241/309   3193 Dawn Hussnatter        26 Baltimore MD     1:14:17 1:06:47 10:45
 1290  60/89    3247 Jeanne McCann          51 Bethesda MD      1:14:46 1:06:47 10:45
 1291 186/238   2501 Meghan Mahaney         31 Washington DC    1:14:18 1:06:47 10:45
 1292           4115 Alissa Havens             Washington DC    1:15:39 1:06:47 10:45
 1293 187/238    111 Jessica Fischer        32 Washington DC    1:14:40 1:06:48 10:45
 1294 154/194   1299 Grace Sheed            14 Bethesda MD      1:09:54 1:06:49 10:46
 1295 242/309    285 Patricia Peddicord     27 Olney MD         1:16:08 1:06:50 10:46
 1296 156/204   4255 Lauren Eden            21 Potomac MD       1:13:43 1:06:50 10:46
 1297 166/215   3381 Yolanda Aguilar        39 Kensington MD    1:08:02 1:06:51 10:46
 1298 188/238   1330 Rebecca Oleszkiewicz   30 Kensington MD    1:14:18 1:06:52 10:46
 1299 243/309    265 Jennifer Myers         29 Alexandria VA    1:12:58 1:06:54 10:46
 1300 167/212   1058 Carole Freret          43 Cabin John MD    1:15:34 1:06:54 10:46
 1301 167/215   2650 Julie Meyers           38 Kensington MD    1:14:51 1:06:55 10:46
 1302 168/215   2264 Jennifer Demarinis     36 Bethesda MD      1:14:52 1:06:56 10:47
 1303 168/212   2616 Lori Kolker            41 Rockville MD     1:14:52 1:06:56 10:47
 1304 157/204   1965 Staci Greenbaum        22 North Potomac MD 1:15:15 1:06:59 10:47
 1305 244/309   1267 Christina Davidson     25 Bethesda MD      1:16:35 1:06:59 10:47
 1306 245/309   3405 Rebekah De Vitry       27 Chevy Chase MD   1:16:35 1:06:59 10:47
 1307 189/238   1920 Christine Kopsidas     32 Potomac MD       1:14:14 1:07:01 10:47
 1308  61/89    3320 Sandra Brecher         50 Rockville MD     1:15:15 1:07:02 10:48
 1309 169/212   2461 Stephanie Malone       41 Bethesda MD      1:15:27 1:07:03 10:48
 1310 169/215   2460 Susan Campion          38 Bethesda MD      1:15:28 1:07:04 10:48
 1311 158/204   1381 Barbara Yang           21 Rockford MI      1:15:02 1:07:04 10:48
 1312 159/204   1468 Brooke Laura           24 Gaithersburg MD  1:14:54 1:07:05 10:48
 1313  62/89    2382 Marian Molinaro        51 Chevy Chase MD   1:14:31 1:07:05 10:48
 1314 155/194   1432 Julie Sampson          19 Kensington MD    1:13:46 1:07:07 10:48
 1315 246/309   4177 Margaret Ericksen      25 Rockville MD     1:15:44 1:07:08 10:49
 1316 247/309   1361 Alexis Fabbri          29 Washington DC    1:16:15 1:07:08 10:49
 1317 156/194   4238 Shannon Kethng         15 Garret Park MD   1:11:26 1:07:09 10:49
 1318 157/194   4237 Bretton Keating        19 Garret Park MD   1:11:26 1:07:09 10:49
 1319 158/194   3146 Stephanie Luk          18 Chappaqua NY     1:10:47 1:07:09 10:49
 1320 160/204   2391 Cynthia Horin          22 Bethesda MD      1:14:34 1:07:11 10:49
 1321 159/194   1782 Ellie Golightly        17 Bethesda MD      1:13:39 1:07:15 10:50
 1322  21/34    4401 Sandy Wolverton        55 Poollesville MD  1:13:47 1:07:17 10:50
 1323  63/89    2199 Patricia Dinneen       53 Rockville MD     1:14:12 1:07:18 10:50
 1324  64/89    2144 Mary Anderson          50 Silver Spring MD 1:08:49 1:07:19 10:50
 1325           4204 Nancy Murphy              Unknown XX       1:14:12 1:07:21 10:51
 1326 170/212   4385 Susan Ewing            42 Kensington MD    1:16:43 1:07:22 10:51
 1327 248/309   2450 Malen Link             29 Bethesda MD      1:16:11 1:07:23 10:51
 1328 171/212   2851 Debbie Maloy           41 Potomac MD       1:13:50 1:07:23 10:51
 1329 249/309   2519 Sweta Batni            29 Washington DC    1:16:11 1:07:23 10:51
 1330 190/238   3612 Liming Ueng            30 New York NY      1:13:48 1:07:23 10:51
 1331 161/204    647 Erica Sivak            22 Olney MD         1:15:32 1:07:26 10:51
 1332 250/309   2492 Vanessa Araguas        26 Rockville MD     1:16:23 1:07:28 10:52
 1333 126/165   4121 Marie Stinger          48 McLean VA        1:14:04 1:07:29 10:52
 1334 251/309    386 Jennifer Cornejo       28 Ft Washington MD 1:14:08 1:07:29 10:52
 1335 127/165   2117 Melissa Carlson        49 Bethesda MD      1:14:54 1:07:36 10:53
 1336 252/309   1913 Jacqueline Coats       26 Bethesda MD      1:14:01 1:07:37 10:53
 1337 253/309   4585 Julie Albert           29 Bethesda MD      1:11:50 1:07:41 10:54
 1338 170/215   2948 Michelle May           37 Potomac MD       1:11:35 1:07:43 10:54
 1339 254/309    161 Meg Leubecker          28 Chevy Chase MD   1:13:51 1:07:43 10:54
 1340 172/212   2444 Kiersten Butterfield   44 Bethesda MD      1:15:33 1:07:43 10:54
 1341  22/34     729 Sandra Callier         59 Bethesda MD      1:14:13 1:07:44 10:54
 1342 162/204    376 Ashley Timberlake      23 Alexandria VA    1:14:35 1:07:49 10:55
 1343 163/204    306 Lindsay Robbins        24 Washington DC    1:14:37 1:07:50 10:55
 1344           7601 Pam Corbett                                1:16:22 1:07:50 10:55
 1345  65/89    2508 Candace Kaller         50 Bethesda MD      1:15:44 1:07:50 10:55
 1346  66/89    3070 Brigitte Grossmann     51 Bethesda MD      1:16:07 1:07:51 10:55
 1347 191/238   4212 Ana Morales            33 Bethesda MD      1:15:12 1:07:53 10:56
 1348           7598 Margy Warner              Takoma Park MD   1:16:13 1:07:54 10:56
 1349 128/165   1991 Barbara Faculjak       47 Washington DC    1:14:44 1:07:54 10:56
 1350 255/309   2496 Jessie Leibowitz       26 Dallas TX        1:16:48 1:07:54 10:56
 1351  23/34    1997 Karen Lieberman        55 Rockville MD     1:17:08 1:07:55 10:56
 1352 256/309   3076 Melissa Kaplan         29 Silver Spring MD 1:17:08 1:07:55 10:56
 1353 164/204   2012 Eleanor Worthy         21 Bethesda MD      1:16:41 1:07:56 10:56
 1354 160/194   2234 Caroline Worthy        15 Bethesda MD      1:16:41 1:07:56 10:56
 1355 173/212   1511 Minna Norkola          44 Bethesda MD      1:17:10 1:07:56 10:56
 1356 161/194   2150 Erin Johnson           18 Bowie MD         1:14:51 1:07:57 10:56
 1357 174/212   2838 Lawal Johnson          44 Annandale VA     1:14:44 1:07:58 10:57
 1358  24/34    2442 Donna Roberts          55 Cabin John MD    1:16:29 1:07:59 10:57
 1359 165/204    327 Laura Forton           23 Washington DC    1:14:26 1:07:59 10:57
 1360 257/309   4223 Luciana Long           28 Laurel MD        1:15:34 1:08:02 10:57
 1361 171/215   3617 Abby Siegel            39 Potomac MD       1:15:24 1:08:05 10:58
 1362 166/204    973 Leda Kaveh             20 Potomac MD       1:17:47 1:08:06 10:58
 1363 192/238   2071 Michelle Baker         32 Washington DC    1:14:28 1:08:06 10:58
 1364 193/238    379 Rhonique Harris        34 Temple Hills MD  1:11:59 1:08:09 10:58
 1365 194/238    641 Adrienne Miller-Phelp  34 Bethesda MD      1:14:35 1:08:09 10:59
 1366  67/89     627 Sylvette Froeliger     52 Bethesda MD      1:14:30 1:08:10 10:59
 1367 162/194   3211 Sara Allen             16 Bethesda MD      1:16:38 1:08:10 10:59
 1368 163/194   3241 Yasmeen Abutaleb       16 Potomac MD       1:16:38 1:08:10 10:59
 1369  68/89    4253 Maureen Smith          53 Rockville MD     1:17:39 1:08:12 10:59
 1370 167/204   1657 Amanda Dolinka         24 Columbia MD      1:15:56 1:08:13 10:59
 1371 168/204     22 Rachel Vonck           24 Rockville MD     1:18:30 1:08:14 10:59
 1372 258/309   4248 Lauren Smith           26 Rockville MD     1:17:40 1:08:14 10:59
 1373 129/165    476 Elizabeth Jerome       47 Washington DC    1:16:26 1:08:14 10:59
 1374  69/89      33 Tracy Schwartz         52 Potomac MD       1:15:56 1:08:14 10:59
 1375  25/34    4200 Susan Gordon           56 Gaithersburg MD  1:14:50 1:08:18 11:00
 1376 169/204     42 Lauren Shuler          21 Potomac MD       1:15:34 1:08:19 11:00
 1377 259/309    477 Alexis Sacks           25 Potomac MD       1:16:15 1:08:20 11:00
 1378 175/212   2125 Beth Sterling          40 Olney MD         1:15:41 1:08:24 11:01
 1379 195/238   2317 Marti Cullen           34 Gaithersburg MD  1:14:56 1:08:25 11:01
 1380 172/215   3090 Liliana Reed           38 Gaithersburg MD  1:14:57 1:08:26 11:01
 1381 176/212   3379 Dawn Wellspeak         44 Chevy Chase MD   1:14:37 1:08:27 11:01
 1382 177/212   4481 Megan Oaksmith         42 Kill Devil Hill  1:12:05 1:08:27 11:01
 1383 196/238    355 Pamela Keenan Fritz    34 North Bethesda M 1:15:57 1:08:28 11:02
 1384  70/89    2042 Nancy Wiegand          50 Chevy Chase MD   1:17:09 1:08:31 11:02
 1385 173/215   2697 Heidi Isenberg-Feig    37 Potomac MD       1:16:53 1:08:33 11:02
 1386 260/309   3657 Alison Cherry          27 Washington DC    1:15:14 1:08:34 11:03
 1387 170/204    369 Miriam Todras          20 Washington DC    1:14:59 1:08:36 11:03
 1388   6/12    3430 Alice Drew             62 Bethesda MD      1:16:14 1:08:36 11:03
 1389  71/89    2196 Terry Graves           53 Silver Spring MD 1:11:48 1:08:37 11:03
 1390 178/212    178 Sandra Colangelo       44 Betehesda MD     1:18:00 1:08:41 11:04
 1391 179/212   2009 Michelle Pablo         44 Washington DC    1:17:13 1:08:41 11:04
 1392 130/165   3394 Jeanette Pablo         49 Washington DC    1:17:13 1:08:42 11:04
 1393  72/89     709 Nancy Lieberman        54 Bethesda MD      1:17:09 1:08:42 11:04
 1394 180/212    618 Elizabeth Krisko       40 Darnestown MD    1:15:57 1:08:47 11:05
 1395   7/12    2696 Evelyn Ralston         60 Bethesda MD      1:16:28 1:08:50 11:05
 1396 174/215    290 Kathleen Campbell      37 Bethesda MD      1:17:28 1:08:56 11:06
 1397 175/215   1288 Caroleene Paul         39 Burtonsville MD  1:17:00 1:08:57 11:06
 1398 171/204    197 Michelle Peters        22 Potomac MD       1:15:55 1:08:58 11:06
 1399 181/212   1447 Mary English           41 Reston VA        1:17:01 1:08:58 11:06
 1400 176/215    189 Lori Bard              38 Bethesda MD      1:15:50 1:09:07 11:08
 1401  73/89    1764 Xenia Shroff           50 Bethesda MD      1:15:31 1:09:08 11:08
 1402 197/238    396 Emily Chaput           32 Madison Heights  1:18:21 1:09:09 11:08
 1403 182/212     37 Dana Dosik             43 Coal Creek Cany  1:12:38 1:09:16 11:09
 1404 177/215   3166 Michelle Meyer         35 Rockville MD     1:17:58 1:09:16 11:09
 1405 164/194   3226 Noor Ibrahim           19 Ashburn VA       1:13:39 1:09:24 11:11
 1406 165/194   3225 Diana Bui              19 Fairfax VA       1:13:39 1:09:24 11:11
 1407 183/212   1629 Maria Sese Paul        44 Bethesda MD      1:18:04 1:09:24 11:11
 1408 172/204   1189 Brigid Leahy           23 Arlington VA     1:18:47 1:09:25 11:11
 1409 261/309   1191 Michele Leahy          26 Washington DC    1:18:48 1:09:26 11:11
 1410 262/309    363 Rebecca Curry          25 Potomac MD       1:16:12 1:09:27 11:11
 1411 173/204     18 Sarah Jorgensen        23 Annapolis MD     1:17:02 1:09:30 11:11
 1412 166/194   1250 Claire Stortstrom      18 Germantown MD    1:16:53 1:09:30 11:12
 1413 167/194   2829 Rebecca Winkert        16 Potomac MD       1:18:18 1:09:34 11:12
 1414 168/194   2316 Rachel Morenoff        15 Potomac MD       1:18:19 1:09:35 11:12
 1415 131/165   2315 Alison Gould-Crouch    47 Potomac MD       1:18:19 1:09:35 11:12
 1416 263/309   2535 Kelley Ferrer          25 Gaithersburg MD  1:16:09 1:09:35 11:12
 1417 264/309   1362 Krista Sermon          28 Edgewater MD     1:18:44 1:09:37 11:13
 1418  74/89     669 Elisa Geier            51 Bethesda MD      1:17:48 1:09:37 11:13
 1419 198/238   3471 Rossana Sobalvarro     33 Germantown MD    1:16:23 1:09:38 11:13
 1420 174/204   3697 Lisa Luckenbaugh       23 Bethesda MD      1:18:13 1:09:38 11:13
 1421 132/165   3220 Caroline Philpott      47 Bethesda MD      1:17:44 1:09:43 11:14
 1422  75/89    2587 Karen Smith            51 Rockville MD     1:19:08 1:09:50 11:15
 1423  76/89     169 Sylvia Mars            53 Bethesda MD      1:18:00 1:09:54 11:15
 1424 178/215   1311 Jennifer Whang         37 Rockville MD     1:17:44 1:09:55 11:15
 1425 265/309   2054 Henrike Veith          26 Bethesda MD      1:17:14 1:09:57 11:16
 1426 175/204    423 Krista Hughes          22 Bethesda MD      1:18:54 1:09:59 11:16
 1427   8/12     110 Lucy Keough            63 Washington DC    1:17:52 1:10:00 11:16
 1428 179/215   3688 Gayle Weiswasser       38 Washington DC    1:17:15 1:10:00 11:16
 1429 169/194    418 Tess Petesch           17 Rockville MD     1:18:53 1:10:03 11:17
 1430 133/165   1183 Andrea Obrien          47 Gaithersburg MD  1:18:08 1:10:07 11:17
 1431 170/194   4256 Marie Keith            15 Bethesda MD      1:16:25 1:10:08 11:18
 1432 266/309   3391 Anjali Nayak           25 Hershey PA       1:11:53 1:10:11 11:18
 1433 199/238   3206 Mary Purvis            30 Reston VA        1:18:08 1:10:13 11:18
 1434 200/238   3462 Amy Elizondo           32 Chevy Chase MD   1:18:52 1:10:14 11:19
 1435 134/165   4249 Terri Scadron          46 Silver Spring MD 1:19:26 1:10:15 11:19
 1436 267/309   3514 Jill Gordon            28 Chicago IL       1:18:40 1:10:16 11:19
 1437 184/212   2950 Antoinette Lewis       40 Rockville MD     1:19:46 1:10:17 11:19
 1438 185/212   4119 Karen Spangler         43 Chevy Chase MD   1:19:30 1:10:17 11:19
 1439  77/89    1341 Ann Lienert            51 Washington DC    1:19:30 1:10:17 11:19
 1440 201/238    990 Jill Tecler            34 Washington DC    1:18:55 1:10:21 11:20
 1441 202/238    194 Jaime Dernar           31 Herndon VA       1:18:48 1:10:22 11:20
 1442 176/204    118 Lydie Essama           24 Charlottesville  1:17:02 1:10:25 11:20
 1443 186/212   1642 Mimi Stansbury         41 Washington DC    1:19:19 1:10:29 11:21
 1444 171/194   4462 Margaret Gill          13 Bethesda MD      1:14:40 1:10:30 11:21
 1445 203/238    404 Mariam Ghovanlou       33 Potomac MD       1:19:07 1:10:31 11:21
 1446 268/309   2072 Katyuska Eibensteiner  27 Arlington VA     1:17:36 1:10:32 11:22
 1447 180/215   2980 Alba O'Keeffe          39 Arlington VA     1:17:37 1:10:33 11:22
 1448 187/212   4146 Nancy Juda             42 Bethesda MD      1:13:41 1:10:35 11:22
 1449 172/194   2634 Rachel Ruda            16 Chey Chase MD    1:18:49 1:10:35 11:22
 1450 173/194   2978 Lindsay Chan           16 Bethesda MD      1:18:49 1:10:35 11:22
 1451 135/165   1009 Marybeth Myers         47 Kensington MD    1:17:26 1:10:36 11:22
 1452 174/194   2910 Clare Wallendjack      19 Kensington MD    1:18:15 1:10:36 11:22
 1453 269/309   2975 Samantha Reinckens     25 North Bethesda M 1:18:21 1:10:36 11:22
 1454 136/165   4300 Emily Miller           46 Chevy Chase MD   1:17:27 1:10:37 11:22
 1455 270/309   3286 Jessica Diaz           28 Hyattsville MD   1:18:48 1:10:42 11:23
 1456 271/309    864 Kelly Scherf           29 Chevy Chase MD   1:20:19 1:10:42 11:23
 1457 272/309    886 Alicia Benderly        29 Bethesda MD      1:20:19 1:10:42 11:23
 1458 181/215   4114 Nga Wohard             35 Gaithersburg MD  1:17:04 1:10:43 11:23
 1459 204/238     91 Serena Vinter          33 Vienna VA        1:19:18 1:10:45 11:24
 1460   9/12      83 Jeanne Parker          63 Bethesda MD      1:19:19 1:10:46 11:24
 1461 177/204   1275 Staci Goodman          20 Rockville MD     1:19:42 1:10:46 11:24
 1462 137/165    895 Megan Carroll          45 Bethesda MD      1:19:39 1:10:48 11:24
 1463 182/215   1972 Deanne Marino          37 Rockville MD     1:19:43 1:10:48 11:24
 1464 188/212   2700 Leslie Davidson        43 Great Falls VA   1:18:44 1:10:48 11:24
 1465 175/194   4584 Sara Oconnor           16 McLean VA        1:14:02 1:10:49 11:24
 1466 138/165   1829 Regina Jenkins         48 Ellicott City MD 1:14:30 1:10:50 11:24
 1467 183/215   4130 Tansa Hubacker         37 Bethesda MD      1:18:43 1:10:50 11:24
 1468  10/12    1363 Danielle Kaczensky     61 Rockville MD     1:19:55 1:10:51 11:25
 1469 273/309   1122 Randi Michaelson       25 Chicago IL       1:17:47 1:10:53 11:25
 1470 184/215   1710 Erica Bullard          37 Chevy Chase MD   1:19:07 1:10:59 11:26
 1471 176/194   1345 Meg Dalbora            19 Olney MD         1:18:50 1:10:59 11:26
 1472 139/165   2913 Heller An Shapiro      48 Chevy Chase MD   1:19:08 1:11:00 11:26
 1473 205/238   3066 Melinda Klein          30 Gaithersburg MD  1:19:07 1:11:01 11:26
 1474 189/212   3050 Lynn Mahaffie          43 Bethesda MD      1:19:18 1:11:06 11:27
 1475 274/309   1325 Karen Adkins           29 Silver Spring MD 1:18:49 1:11:06 11:27
 1476 190/212   2233 Michelle Kuldell       41 North Potomac MD 1:19:49 1:11:08 11:27
 1477 140/165   1789 Shantha Moses          47 Laurel MD        1:21:31 1:11:10 11:28
 1478 191/212   3616 Catherine Johnson      44 Bethesda MD      1:19:56 1:11:12 11:28
 1479 206/238   1230 Erica Rosemond         34 Bethesda MD      1:19:45 1:11:25 11:30
 1480 185/215   1344 Amy Ullman             37 Potomac MD       1:20:17 1:11:27 11:30
 1481 177/194   2405 Alexandra Savramis     14 Bethesda MD      1:14:40 1:11:29 11:31
 1482 275/309    297 Marianne Terrot        29 Rockville MD     1:19:29 1:11:30 11:31
 1483 186/215    848 Adrieane Jons          38 Bethesda MD      1:20:11 1:11:32 11:31
 1484  78/89    2321 Alyssa Crilley         50 Chevy Chase MD   1:19:29 1:11:35 11:32
 1485 276/309   2728 Robin Shenton          27 Darnestown MD    1:20:48 1:11:35 11:32
 1486 187/215   1439 Jennifer Campbell      37 Gaithersburg MD  1:18:21 1:11:35 11:32
 1487 188/215   2050 Deborah Engel          39 Potomac MD       1:18:21 1:11:35 11:32
 1488 141/165   4105 Caroline Fuchs         49 Silver Spring MD 1:19:05 1:11:44 11:33
 1489 178/204   1501 Susan Blaylock         20 Northfield MN    1:19:18 1:11:45 11:33
 1490 142/165   4103 Rita Ballesteros       48 Chevy Chase MD   1:19:05 1:11:45 11:33
 1491 178/194    489 Michaela Bilotta       17 Washington DC    1:20:10 1:11:45 11:33
 1492 189/215    254 Tanya Kreter           36 Bethesda MD      1:19:11 1:11:46 11:33
 1493 277/309    216 Katherine Foulger      27 Potomac MD       1:11:47 1:11:47 11:34
 1494 192/212   4533 Marsha Ralls           42 Washington DC    1:14:56 1:11:48 11:34
 1495 179/204   3197 Chelsea Nycum          22 Bethesda MD      1:20:23 1:11:51 11:34
 1496  79/89    3589 Diane Ring             53 Bethesda MD      1:18:07 1:11:52 11:34
 1497 193/212   1482 Ann Gaegler            44 Adelphi MD       1:20:11 1:11:53 11:35
 1498 179/194   2571 Erin O'Connor          16 Gaithersburg MD  1:15:32 1:11:56 11:35
 1499 143/165   4126 Betsy Tolstoi          46 Chevy Chase MD   1:19:53 1:12:00 11:36
 1500 194/212    465 Catherine Copenhaver   43 Bethesda MD      1:21:50 1:12:05 11:36
 1501 180/204   3523 Shantell Brown         24 Columbia MD      1:15:54 1:12:06 11:37
 1502 190/215   1809 Allison Karasik        37 Rockville MD     1:20:56 1:12:07 11:37
 1503 144/165   2378 Kelly Maltagliati      48 Burtonsville MD  1:20:30 1:12:09 11:37
 1504 145/165    614 Anne Witty             48 Burtonsville MD  1:20:30 1:12:09 11:37
 1505 146/165    666 Ann Borlo              49 Kensington MD    1:20:31 1:12:10 11:37
 1506 207/238   3654 Esther James           31 Silver Spring MD 1:23:24 1:12:13 11:38
 1507 278/309   1419 Robin Toblin           29 Atlanta GA       1:21:18 1:12:14 11:38
 1508 147/165   3250 Kate Sugarman          47 Rockville MD     1:16:27 1:12:14 11:38
 1509 195/212   2401 Jodi Hope Anderson     43 Rockville MD     1:21:38 1:12:15 11:38
 1510 279/309   1168 Tracy Miller           28 Rockville MD     1:21:19 1:12:15 11:38
 1511 191/215   2381 Miyoshi Thomas         37 Silver Spring MD 1:20:50 1:12:16 11:38
 1512 148/165   2753 Carri Bennet           47 Bethesda MD      1:20:04 1:12:16 11:38
 1513 196/212    752 Emily Freeman          42 Annapolis MD     1:16:22 1:12:19 11:39
 1514 149/165    753 Mary Freeman           47 Annapolis MD     1:16:25 1:12:19 11:39
 1515  80/89    1694 Mary E Springuel       54 Glen Echo MD     1:19:36 1:12:24 11:39
 1516 208/238   3362 Catherine Paparizos    33 Kensington MD    1:20:38 1:12:25 11:40
 1517 280/309   1418 Erin Alexander         26 San Antonio TX   1:22:06 1:12:35 11:41
 1518 181/204   3401 Brittany Parrish       23 Germantown MD    1:20:49 1:12:43 11:43
 1519 182/204    420 Rebecca Cobbs          21 Middlebury VT    1:21:44 1:12:49 11:43
 1520 150/165   3634 Lynda Espada           48 Falls Church VA  1:21:31 1:12:49 11:44
 1521 281/309   4282 Margaret Mooney        25 Bethesda MD      1:12:55 1:12:55 11:45
 1522 209/238   3506 Nathaly Herrel         34 Bethesda MD      1:21:51 1:13:05 11:46
 1523 282/309   1258 Rachel Stark           25 Los Angeles CA   1:21:48 1:13:19 11:48
 1524 197/212    724 Renee Leiberman        42 Silver Spring MD 1:21:15 1:13:21 11:49
 1525 198/212    934 Amy Sklaire            42 Bethesda MD      1:20:40 1:13:24 11:49
 1526  81/89    1451 Cindy Prince           50 Silver Spring MD 1:21:19 1:13:26 11:49
 1527 180/194    133 Jessica Chen           14 Bethesda MD      1:22:11 1:13:26 11:49
 1528 181/194    134 Katie Chen             17 Bethesda MD      1:22:12 1:13:27 11:50
 1529 210/238     25 Colima Gibbons         33 Silver Spring MD 1:21:50 1:13:29 11:50
 1530 151/165   2514 Sharon Wong            47 Davidsonville MD 1:20:02 1:13:34 11:51
 1531 211/238   1280 Allison Cooper         34 Norfolk VA       1:22:28 1:13:34 11:51
 1532 199/212   1068 Karen Rindner          41 Potomac MD       1:21:44 1:13:39 11:52
 1533 283/309   2438 Paula Borges           29 North Bethesda M 1:22:24 1:13:48 11:53
 1534  26/34    1662 Laurie Alban Havens    58 Rockville MD     1:22:43 1:13:50 11:53
 1535 284/309   2090 Laura Breiteneicher    28 Washington DC    1:13:52 1:13:52 11:54
 1536 285/309    668 Meghan Leblanc         28 Rockville MD     1:21:32 1:13:55 11:54
 1537 192/215   1616 Saroja Ringo           37 Hyattsville MD   1:21:07 1:13:55 11:54
 1538 286/309   3159 Juliana Leblanc        25 New York NY      1:21:33 1:13:56 11:54
 1539 212/238   2825 Shoshana Pearlman      32 Silver Spring MD 1:23:01 1:14:00 11:55
 1540 213/238   3300 Gretchen Fowles        34 Hackettstown NJ  1:17:35 1:14:00 11:55
 1541 193/215    595 Michelle Russo         39 Silver Spring MD 1:17:35 1:14:01 11:55
 1542 214/238   2067 Catie Deluca           30 Fort Collins CO  1:22:31 1:14:04 11:56
 1543 194/215     60 Rebecca Katz           35 Bethesda MD      1:21:13 1:14:07 11:56
 1544 183/204   1876 Emily Grunewald        21 Potomac MD       1:22:14 1:14:14 11:57
 1545 152/165   1479 Fariba Nielsen         47 Ny NY            1:21:55 1:14:15 11:57
 1546 153/165   3219 Mary Ann Michael       47 Potomac MD       1:22:56 1:14:18 11:58
 1547  82/89    2182 Karen Dubin            53 Bethesda MD      1:20:45 1:14:22 11:58
 1548 154/165   1005 Gail Adler             46 Wilmette IL      1:21:38 1:14:22 11:58
 1549 215/238   1129 Amy Dant               32 Takoma Park MD   1:18:16 1:14:22 11:59
 1550 184/204    438 Colleen Woolheater     23 North Potomac MD 1:21:54 1:14:24 11:59
 1551 185/204    499 Marianne Epstein       22 Chevy Chase MD   1:21:06 1:14:26 11:59
 1552 186/204    498 Katherine Epstein      22 Chevy Chase MD   1:21:06 1:14:26 11:59
 1553 187/204   4465 Jennifer Davis         22 Rockville MD     1:22:39 1:14:30 12:00
 1554 287/309    515 Catherine Miller       27 North Bethesda M 1:22:39 1:14:30 12:00
 1555 288/309   4345 Arlen Sobalvarro       28 Germantown MD    1:21:18 1:14:34 12:00
 1556 289/309   3112 Andrea Bainbridge      27 Baltimore MD     1:23:19 1:14:35 12:01
 1557 188/204   3065 Alexandra Bainbridge   23 Germantown MD    1:23:20 1:14:36 12:01
 1558 195/215    564 Rachna Uppal           39 McLean VA        1:17:57 1:14:36 12:01
 1559  27/34    1896 Elaine Hirsch          58 Rockville MD     1:18:31 1:14:37 12:01
 1560 290/309     88 Jessica Cole           28 Silver Spring MD 1:24:55 1:14:39 12:01
 1561 196/215   3036 Ellen Fellows          39 Frederick MD     1:23:11 1:14:46 12:02
 1562 216/238    209 Megan Torpey           33 Bethesda MD      1:24:32 1:14:51 12:03
 1563  83/89     817 Monya Cohen            50 Silver Spring MD 1:23:53 1:14:52 12:03
 1564 200/212   1815 Christine Lynn         42 Bethesda MD      1:14:53 1:14:53 12:03
 1565   1/1     1862 Jamie Wollard          70 N.Bethesda MD    1:17:58 1:14:55 12:04
 1566 197/215    288 Abbey Frank            37 Chevy Chase MD   1:21:47 1:14:56 12:04
 1567  84/89    2828 Mary Kimelblatt        53 Potomac MD       1:23:35 1:14:57 12:04
 1568  28/34    4079 Karyl Barron           57 Bethesda MD      1:21:13 1:14:58 12:04
 1569 189/204   3324 Katie Philippi         23 Germantown MD    1:23:49 1:14:58 12:04
 1570 291/309   2577 Allison Cotner         29 Washington DC    1:23:23 1:15:00 12:05
 1571 198/215   3608 Genevieve Kessler      38 Potomac MD       1:21:37 1:15:03 12:05
 1572 199/215   4688 Cordia Hinojosa        35 Washington DC    1:22:50 1:15:03 12:05
 1573   3/4     1134 Lu Birney              10 Annapolis MD     1:22:50 1:15:12 12:06
 1574 292/309   1133 Helen Birney           25 Annapolis MD     1:22:49 1:15:12 12:06
 1575 217/238   1257 Marlena Burghardt      31 Hanover MD       1:24:17 1:15:16 12:07
 1576 182/194    519 Claire Van Ekdom       12 Chevy Chase MD   1:23:12 1:15:16 12:07
 1577 183/194    383 Sarah Katz             13 Chevy Chase MD   1:23:13 1:15:17 12:07
 1578 200/215   2342 Kelly Fischer          39 Alexandria VA    1:22:54 1:15:17 12:07
 1579 201/212    380 Lisa Katz              43 Chevy Chase MD   1:23:12 1:15:17 12:07
 1580 201/215    707 Stacy Silber           39 Bethesda MD      1:23:55 1:15:21 12:08
 1581 202/215    705 Rebecca Farrington     37 Bethesda MD      1:23:56 1:15:22 12:08
 1582 155/165   2516 Carrie Dworshak        49 Silver Spring MD 1:24:36 1:15:24 12:08
 1583 203/215   1351 Sofia Mancleno-Gross   36 Bethesda MD      1:23:35 1:15:29 12:09
 1584 218/238    329 Kelly Baker            31 Germantown MD    1:24:42 1:15:30 12:09
 1585 184/194   4217 Katin Korzeniwsky      17 Silver Spring MD 1:23:17 1:15:41 12:11
 1586 185/194   4216 Sonya Korzeniwsky      13 Silver Spring MD 1:23:18 1:15:42 12:11
 1587 156/165     57 Paula Knutson          48 North Potomac MD 1:24:32 1:15:45 12:12
 1588 202/212    698 Alissa Stern           44 Bethesda MD      1:25:04 1:15:45 12:12
 1589 203/212   3375 Lee Ann                43 Rockville MD     1:24:40 1:15:46 12:12
 1590  29/34    2912 Terri Wallendjack      55 Kensington MD    1:23:32 1:15:52 12:13
 1591 293/309   1912 Michelle Rodak         27 Alexandria VA    1:24:03 1:15:53 12:13
 1592 219/238   1949 Susan Rodak            30 Potomac MD       1:24:02 1:15:53 12:13
 1593   4/4      346 Jill Melrose           11 Gaithersburg MD  1:25:56 1:15:56 12:14
 1594 204/215   2086 Shari Diamond          35 New York NY      1:23:28 1:15:59 12:14
 1595 294/309   1736 Jennifer Buhr          26 Hanover MD       1:24:28 1:16:03 12:15
 1596 190/204   2272 Kieley Humrichouse     21 Bethesda MD      1:24:34 1:16:08 12:16
 1597 204/212   2232 Kim Diamond            41 Berkeley Height  1:23:39 1:16:10 12:16
 1598 220/238    164 Holly Schlesinger      32 New York NY      1:25:09 1:16:11 12:16
 1599 191/204    554 Amanda McGlaughlin     24 Laytonsville MD  1:25:19 1:16:11 12:16
 1600  30/34     553 Nora McGlaughlin       59 Laytonsville MD  1:25:19 1:16:11 12:16
 1601  11/12    4201 Martha Phillips-Patri  62 Rockville MD     1:25:17 1:16:12 12:16
 1602 192/204    555 Kathleen McGlaughlin   21 Laytonsville MD  1:25:20 1:16:12 12:16
 1603 186/194   1561 Hannah Duffy           16 Cabin John MD    1:22:52 1:16:23 12:18
 1604 221/238   1698 Ann Crehan             34 Baltimore MD     1:23:41 1:16:31 12:19
 1605 222/238   3201 Twanna Campbell        31 Laurel MD        1:20:21 1:16:32 12:19
 1606 205/215   3167 Beverlee Diamond       37 Rockville MD     1:25:17 1:16:35 12:20
 1607 223/238    303 Gitta Ghovanlou        30 Potomac MD       1:25:18 1:16:42 12:21
 1608 205/212   1023 Kay Anderson           41 Bethesda MD      1:24:18 1:16:43 12:21
 1609 157/165   1024 Sherry Brown           48 Bethesda MD      1:24:18 1:16:44 12:21
 1610  31/34    3039 Barbara Brown          56 Potomac MD       1:23:50 1:16:48 12:22
 1611 193/204   4156 Julia Durkin           21 Germantown MD    1:24:56 1:17:05 12:25
 1612 187/194    320 Hanna Schweitzer       14 Bethesda MD      1:26:05 1:17:05 12:25
 1613 295/309   1195 Melissa Pignataro      25 Mount Pleasant S 1:24:04 1:17:09 12:25
 1614 224/238   3767 Emily Savage           30 Natick MA        1:21:10 1:17:10 12:26
 1615 158/165    710 Caren Norris           48 Bethesda MD      1:24:26 1:17:20 12:27
 1616  85/89     307 Kathy Staudaher        53 Bethesda MD      1:24:26 1:17:20 12:27
 1617  32/34    2259 Janice Derr            58 Potomac MD       1:26:18 1:17:30 12:29
 1618   3/5      894 Kathy Price            68 Ocean Pines MD   1:26:22 1:17:31 12:29
 1619 296/309   1814 Cristina Murphy        26 Bethesda MD      1:26:05 1:17:38 12:30
 1620 225/238   1793 Tara Ferdows           30 Bethesda MD      1:17:51 1:17:51 12:32
 1621  33/34     966 Robin Thomashauer      56 Bethesda MD      1:25:29 1:18:03 12:34
 1622 206/212    475 Emily Hattwick         40 McLean VA        1:26:46 1:18:06 12:35
 1623 206/215   2495 Mollybeth Rushfield    39 Rockville MD     1:27:17 1:18:06 12:35
 1624  86/89    4241 Nelvis Castro          53 Bethesda MD      1:27:00 1:18:09 12:35
 1625 207/215   4197 Melanie Wine           38 Bethesda MD      1:26:49 1:18:15 12:36
 1626 208/215    370 Angela Melton          38 Kensington MD    1:26:00 1:18:16 12:36
 1627 188/194   3638 Margaret Tomlin        17 Bethesda MD      1:27:47 1:18:17 12:36
 1628 226/238   3494 Sheila Grace           34 Norwalk CT       1:27:50 1:18:20 12:37
 1629 209/215   4229 Arpinpon Sawetsilpsop  39 Washington DC    1:27:17 1:18:25 12:38
 1630 210/215   2901 Robin Branch           37 Chester VA       1:25:46 1:18:30 12:38
 1631   4/5      113 Susan McGregor         67 Washington DC    1:26:48 1:18:31 12:38
 1632 159/165   1480 Joyce Setsuda          45 Bethesda MD      1:27:19 1:18:34 12:39
 1633           7599 Elizabeth Toth                             1:26:57 1:18:36 12:39
 1634 297/309   2905 Kathleen Hertel        27 Catonsville MD   1:27:03 1:18:40 12:40
 1635 298/309   1941 Leslie Cruz            29 Silver Spring MD 1:27:17 1:18:43 12:41
 1636 194/204   3691 Nicole Thompson        24 Germantown MD    1:26:58 1:18:49 12:41
 1637 227/238    278 Becky Martel           33 Gaithersburg MD  1:28:07 1:19:02 12:43
 1638 195/204   1135 Ryan Selzer            24 Chevy Chase MD   1:26:36 1:19:05 12:44
 1639 196/204   2138 Katie Hlavinka         21 Gaithersburg MD  1:25:23 1:19:06 12:44
 1640 207/212     40 Betsey Swan            41 Gaithersburg MD  1:27:47 1:19:12 12:45
 1641 197/204   3566 Shelly Bressler        21 North Potomac MD 1:27:33 1:19:18 12:46
 1642 208/212   1626 April Brubach          41 Bethesda MD      1:28:01 1:19:21 12:47
 1643 299/309   4356 Michelle Oddis         26 Bethesda MD      1:27:32 1:19:23 12:47
 1644 300/309    149 Pamela Terry           28 Odenton MD       1:28:32 1:19:32 12:48
 1645 189/194   3463 Lauren Serpan          16 Chevy Chase MD   1:27:59 1:19:45 12:50
 1646 228/238    257 Magdalena Kazmier      33 Hyattsville MD   1:26:24 1:19:45 12:51
 1647 211/215    258 Ursula Ferguson        37 Bowie MD         1:26:24 1:19:46 12:51
 1648  87/89     277 Laurie Hergert         50 Rockville MD     1:29:01 1:19:56 12:52
 1649 190/194   4366 Ashley Carroll         17 Arlington VA     1:26:26 1:20:21 12:56
 1650 229/238    581 Jamie Barnes           32 Bethesda MD      1:29:13 1:20:35 12:59
 1651 209/212    427 Maureen Padden         43 Bethesda MD      1:29:20 1:21:00 13:03
 1652 301/309   2228 Suzanne Carroll        26 Washington DC    1:29:28 1:21:06 13:04
 1653 160/165    411 Jamie Kersten          45 Bethesda MD      1:29:30 1:21:10 13:04
 1654 161/165   2531 Laura Evans            47 Brookevile MD    1:31:07 1:21:38 13:09
 1655 210/212   4336 Alexandra Osias        41 Palm Beach Gard  1:30:08 1:21:51 13:11
 1656 211/212   3547 Rose Troia             42 Kensington MD    1:33:08 1:21:57 13:12
 1657 230/238   2276 Elizabeth Kramer       31 Chevy Chase MD   1:29:46 1:22:00 13:12
 1658 231/238   3371 Sahar Rais             31 Arlington VA     1:29:47 1:22:01 13:12
 1659 302/309   3297 Susan Hu               28 Bethesda MD      1:30:26 1:22:04 13:13
 1660 198/204   2293 Michele Levy           24 Rockville MD     1:22:14 1:22:14 13:14
 1661 199/204   1460 Nichole Scaglione      24 Rock Hill SC     1:31:27 1:22:16 13:15
 1662 212/215    976 Lallitha John          37 Bethesda MD      1:31:49 1:22:28 13:17
 1663 232/238    679 Suzanne Broadfield     30 Gaithersburg MD  1:32:43 1:22:49 13:20
 1664 303/309   3668 Cshantara Woolfolk     27 Annandale VA     1:29:56 1:22:49 13:20
 1665 200/204   2594 Rachel Seltzer         22 Dix Hills NY     1:27:24 1:23:09 13:23
 1666 213/215   4476 Esperanca Silverman    36 Silver Spring MD 1:31:42 1:23:11 13:24
 1667 191/194   3043 Anastasia Pressel      13 Rockville MD     1:26:57 1:23:33 13:27
 1668 192/194    863 Grace Chandler         14 Potomac MD       1:31:35 1:23:33 13:27
 1669 193/194    185 Nikki Heimberg         15 Potomac MD       1:31:34 1:23:33 13:27
 1670  12/12    2783 Christine Spates       62 Brookeville MD   1:30:47 1:23:59 13:31
 1671 201/204   4444 Yussy El Hibri         23 Potomac MD       1:31:08 1:24:41 13:38
 1672 212/212    838 Karin Kass             41 Rockville MD     1:34:01 1:24:43 13:38
 1673 233/238   2732 Nidia Zuniga           30 Silver Spring MD 1:28:08 1:24:50 13:39
 1674 202/204     23 Abby Vonck             21 Rockville MD     1:35:38 1:25:20 13:44
 1675  34/34    1457 Rina Palchick          58 Chevy Chase MD   1:34:46 1:25:35 13:47
 1676   5/5     3129 Jeanette Kreiser       65 Chevy Chase MD   1:35:04 1:25:45 13:48
 1677 162/165    468 Karen Hammerman        46 Rockville MD     1:34:03 1:25:57 13:50
 1678 163/165    535 Karen Riibner          45 Bethesda MD      1:34:10 1:25:58 13:51
 1679 234/238    478 Elana Divine           30 Rockville MD     1:34:05 1:25:59 13:51
 1680 164/165   1835 Marie Foley            47 Wilmington DE    1:34:50 1:26:16 13:53
 1681 304/309   4254 Jennifer McQuade       26 St John IN       1:37:14 1:26:55 14:00
 1682 203/204   2736 Nicole Collins         23 Bethesda MD      1:34:12 1:27:44 14:08
 1683 235/238   2861 Carley Meinert         33 Potomac MD       1:34:12 1:27:44 14:08
 1684 236/238   2273 Valentina Pillai       34 Beltsville MD    1:29:02 1:27:51 14:09
 1685 237/238   1152 Hope Miller Miles      34 Reisterstown MD  1:36:25 1:28:02 14:10
 1686 214/215   4449 Sarah White            35 McLean VA        1:37:18 1:28:20 14:13
 1687 215/215   2944 Deborah White          39 Tampa FL         1:37:18 1:28:20 14:13
 1688 305/309    439 Megan Woolheater       27 North Potomac MD 1:36:01 1:28:29 14:15
 1689 165/165   3692 Anne O'Herron          45 West Chester PA  1:39:38 1:30:14 14:32
 1690 306/309     24 Stephanie Petzing      27 Silver Spring MD 1:40:44 1:30:25 14:33
 1691  88/89    2520 Paula Widerlite        50 Bethesda MD      1:38:56 1:31:11 14:41
 1692  89/89    2530 Lynne Carbone          54 Bethesda MD      1:38:56 1:31:11 14:41
 1693 238/238    558 Amanda Bender          32 Kensington MD    1:40:19 1:32:08 14:50
 1694 307/309     19 Meghan Rooney          26 Rockville MD     1:43:16 1:33:39 15:05
 1695 308/309     20 Sarah Smith            26 Walkersville MD  1:43:16 1:33:40 15:05
 1696 204/204    507 Casey Mulholland       24 Rockville MD     1:41:20 1:34:56 15:17
 1697 309/309   1850 Shannon Devore         25 Rockville MD     1:41:21 1:34:57 15:17
 1698 194/194   2129 Kenna Libes            14 Potomac MD       1:50:03 1:43:10 16:37
 1699   1/1     2131 Lennie Libes           77 Potomac MD       1:50:20 1:43:25 16:39